<?xml version="1.0" encoding="UTF-8" standalone="no" ?>
<gpx xmlns="http://www.topografix.com/GPX/1/1" xmlns:xsi="http://www.w3.org/2001/XMLSchema-instance" xsi:schemaLocation="http://www.topografix.com/GPX/1/1 http://www.topografix.com/GPX/1/1/gpx.xsd" version="1.1" creator="VisuGPX - https://www.visugpx.com">
  <metadata>
    <name>Entre le mur de la peste et les 3 termes</name>
    <desc><![CDATA[Balade dans les monts du Vaucluse en passant par le mur de le mur de la peste et les 3 termes]]></desc>
  </metadata>
  <trk>
    <name><![CDATA[2017-09-11 14:33:15]]></name>
    <trkseg>
      <trkpt lat="43.96731" lon="5.18896">
        <ele>507.71</ele>
        <time>2017-09-11T07:31:40Z</time>
      </trkpt>
      <trkpt lat="43.96731" lon="5.18896">
        <ele>507.71</ele>
        <time>2017-09-11T07:31:41Z</time>
      </trkpt>
      <trkpt lat="43.96732" lon="5.18898">
        <ele>508.67</ele>
        <time>2017-09-11T07:31:45Z</time>
      </trkpt>
      <trkpt lat="43.96731" lon="5.18896">
        <ele>508.19</ele>
        <time>2017-09-11T07:32:07Z</time>
      </trkpt>
      <trkpt lat="43.96731" lon="5.18894">
        <ele>507.71</ele>
        <time>2017-09-11T07:32:24Z</time>
      </trkpt>
      <trkpt lat="43.9673" lon="5.18894">
        <ele>505.79</ele>
        <time>2017-09-11T07:32:39Z</time>
      </trkpt>
      <trkpt lat="43.96731" lon="5.18895">
        <ele>511.56</ele>
        <time>2017-09-11T07:32:40Z</time>
      </trkpt>
      <trkpt lat="43.96731" lon="5.18899">
        <ele>508.67</ele>
        <time>2017-09-11T07:32:41Z</time>
      </trkpt>
      <trkpt lat="43.96728" lon="5.18896">
        <ele>508.67</ele>
        <time>2017-09-11T07:33:02Z</time>
      </trkpt>
      <trkpt lat="43.96737" lon="5.18893">
        <ele>508.19</ele>
        <time>2017-09-11T07:33:30Z</time>
      </trkpt>
      <trkpt lat="43.96744" lon="5.18882">
        <ele>507.71</ele>
        <time>2017-09-11T07:33:44Z</time>
      </trkpt>
      <trkpt lat="43.96749" lon="5.1887">
        <ele>508.67</ele>
        <time>2017-09-11T07:33:59Z</time>
      </trkpt>
      <trkpt lat="43.96755" lon="5.18859">
        <ele>509.16</ele>
        <time>2017-09-11T07:34:14Z</time>
      </trkpt>
      <trkpt lat="43.96763" lon="5.18838">
        <ele>512.04</ele>
        <time>2017-09-11T07:34:33Z</time>
      </trkpt>
      <trkpt lat="43.96763" lon="5.18813">
        <ele>513.96</ele>
        <time>2017-09-11T07:34:51Z</time>
      </trkpt>
      <trkpt lat="43.96766" lon="5.18794">
        <ele>515.4</ele>
        <time>2017-09-11T07:35:06Z</time>
      </trkpt>
      <trkpt lat="43.96772" lon="5.18774">
        <ele>517.33</ele>
        <time>2017-09-11T07:35:24Z</time>
      </trkpt>
      <trkpt lat="43.96777" lon="5.1876">
        <ele>519.25</ele>
        <time>2017-09-11T07:35:40Z</time>
      </trkpt>
      <trkpt lat="43.96779" lon="5.1874">
        <ele>521.65</ele>
        <time>2017-09-11T07:35:57Z</time>
      </trkpt>
      <trkpt lat="43.96771" lon="5.18729">
        <ele>523.58</ele>
        <time>2017-09-11T07:36:14Z</time>
      </trkpt>
      <trkpt lat="43.96768" lon="5.18725">
        <ele>524.54</ele>
        <time>2017-09-11T07:36:19Z</time>
      </trkpt>
      <trkpt lat="43.96756" lon="5.18712">
        <ele>525.98</ele>
        <time>2017-09-11T07:36:36Z</time>
      </trkpt>
      <trkpt lat="43.96744" lon="5.18697">
        <ele>527.42</ele>
        <time>2017-09-11T07:36:54Z</time>
      </trkpt>
      <trkpt lat="43.96734" lon="5.18685">
        <ele>529.82</ele>
        <time>2017-09-11T07:37:10Z</time>
      </trkpt>
      <trkpt lat="43.96725" lon="5.18674">
        <ele>531.75</ele>
        <time>2017-09-11T07:37:25Z</time>
      </trkpt>
      <trkpt lat="43.96717" lon="5.18662">
        <ele>533.19</ele>
        <time>2017-09-11T07:37:39Z</time>
      </trkpt>
      <trkpt lat="43.96708" lon="5.18649">
        <ele>534.15</ele>
        <time>2017-09-11T07:37:56Z</time>
      </trkpt>
      <trkpt lat="43.96698" lon="5.18633">
        <ele>534.63</ele>
        <time>2017-09-11T07:38:15Z</time>
      </trkpt>
      <trkpt lat="43.96691" lon="5.18626">
        <ele>535.11</ele>
        <time>2017-09-11T07:38:23Z</time>
      </trkpt>
      <trkpt lat="43.96675" lon="5.18626">
        <ele>536.07</ele>
        <time>2017-09-11T07:38:43Z</time>
      </trkpt>
      <trkpt lat="43.96667" lon="5.18626">
        <ele>537.03</ele>
        <time>2017-09-11T07:38:58Z</time>
      </trkpt>
      <trkpt lat="43.96658" lon="5.18626">
        <ele>537.51</ele>
        <time>2017-09-11T07:39:08Z</time>
      </trkpt>
      <trkpt lat="43.96642" lon="5.18627">
        <ele>538.48</ele>
        <time>2017-09-11T07:39:24Z</time>
      </trkpt>
      <trkpt lat="43.96627" lon="5.18625">
        <ele>538.96</ele>
        <time>2017-09-11T07:39:41Z</time>
      </trkpt>
      <trkpt lat="43.96613" lon="5.1862">
        <ele>537.99</ele>
        <time>2017-09-11T07:39:57Z</time>
      </trkpt>
      <trkpt lat="43.96612" lon="5.1862">
        <ele>540.88</ele>
        <time>2017-09-11T07:39:58Z</time>
      </trkpt>
      <trkpt lat="43.96597" lon="5.18611">
        <ele>539.44</ele>
        <time>2017-09-11T07:40:13Z</time>
      </trkpt>
      <trkpt lat="43.96578" lon="5.18605">
        <ele>539.44</ele>
        <time>2017-09-11T07:40:32Z</time>
      </trkpt>
      <trkpt lat="43.9656" lon="5.18603">
        <ele>539.44</ele>
        <time>2017-09-11T07:40:50Z</time>
      </trkpt>
      <trkpt lat="43.96542" lon="5.18603">
        <ele>540.88</ele>
        <time>2017-09-11T07:41:08Z</time>
      </trkpt>
      <trkpt lat="43.96522" lon="5.18602">
        <ele>542.32</ele>
        <time>2017-09-11T07:41:28Z</time>
      </trkpt>
      <trkpt lat="43.96505" lon="5.18602">
        <ele>542.8</ele>
        <time>2017-09-11T07:41:45Z</time>
      </trkpt>
      <trkpt lat="43.96484" lon="5.186">
        <ele>543.76</ele>
        <time>2017-09-11T07:42:05Z</time>
      </trkpt>
      <trkpt lat="43.96463" lon="5.18591">
        <ele>544.72</ele>
        <time>2017-09-11T07:42:26Z</time>
      </trkpt>
      <trkpt lat="43.96444" lon="5.18576">
        <ele>545.69</ele>
        <time>2017-09-11T07:42:47Z</time>
      </trkpt>
      <trkpt lat="43.96428" lon="5.1856">
        <ele>546.17</ele>
        <time>2017-09-11T07:43:05Z</time>
      </trkpt>
      <trkpt lat="43.96408" lon="5.18548">
        <ele>547.13</ele>
        <time>2017-09-11T07:43:25Z</time>
      </trkpt>
      <trkpt lat="43.96398" lon="5.18543">
        <ele>547.13</ele>
        <time>2017-09-11T07:43:36Z</time>
      </trkpt>
      <trkpt lat="43.96396" lon="5.18541">
        <ele>545.69</ele>
        <time>2017-09-11T07:43:38Z</time>
      </trkpt>
      <trkpt lat="43.96395" lon="5.1854">
        <ele>545.69</ele>
        <time>2017-09-11T07:43:48Z</time>
      </trkpt>
      <trkpt lat="43.96394" lon="5.1854">
        <ele>548.57</ele>
        <time>2017-09-11T07:43:50Z</time>
      </trkpt>
      <trkpt lat="43.96391" lon="5.18542">
        <ele>546.17</ele>
        <time>2017-09-11T07:43:53Z</time>
      </trkpt>
      <trkpt lat="43.96375" lon="5.18551">
        <ele>546.17</ele>
        <time>2017-09-11T07:44:12Z</time>
      </trkpt>
      <trkpt lat="43.96369" lon="5.18553">
        <ele>548.09</ele>
        <time>2017-09-11T07:44:19Z</time>
      </trkpt>
      <trkpt lat="43.96351" lon="5.18559">
        <ele>548.57</ele>
        <time>2017-09-11T07:44:38Z</time>
      </trkpt>
      <trkpt lat="43.96333" lon="5.1856">
        <ele>548.57</ele>
        <time>2017-09-11T07:44:56Z</time>
      </trkpt>
      <trkpt lat="43.96313" lon="5.18561">
        <ele>548.57</ele>
        <time>2017-09-11T07:45:15Z</time>
      </trkpt>
      <trkpt lat="43.96293" lon="5.18559">
        <ele>549.53</ele>
        <time>2017-09-11T07:45:35Z</time>
      </trkpt>
      <trkpt lat="43.96273" lon="5.1855">
        <ele>550.49</ele>
        <time>2017-09-11T07:45:55Z</time>
      </trkpt>
      <trkpt lat="43.96273" lon="5.1855">
        <ele>550.97</ele>
        <time>2017-09-11T07:46:09Z</time>
      </trkpt>
      <trkpt lat="43.96273" lon="5.1855">
        <ele>549.05</ele>
        <time>2017-09-11T07:46:11Z</time>
      </trkpt>
      <trkpt lat="43.96273" lon="5.18548">
        <ele>548.57</ele>
        <time>2017-09-11T07:46:46Z</time>
      </trkpt>
      <trkpt lat="43.96272" lon="5.18549">
        <ele>548.57</ele>
        <time>2017-09-11T07:47:16Z</time>
      </trkpt>
      <trkpt lat="43.96273" lon="5.1855">
        <ele>550.01</ele>
        <time>2017-09-11T07:47:19Z</time>
      </trkpt>
      <trkpt lat="43.96272" lon="5.1855">
        <ele>550.01</ele>
        <time>2017-09-11T07:47:35Z</time>
      </trkpt>
      <trkpt lat="43.96273" lon="5.1855">
        <ele>550.01</ele>
        <time>2017-09-11T07:47:50Z</time>
      </trkpt>
      <trkpt lat="43.96271" lon="5.18547">
        <ele>550.01</ele>
        <time>2017-09-11T07:48:11Z</time>
      </trkpt>
      <trkpt lat="43.96271" lon="5.18545">
        <ele>550.01</ele>
        <time>2017-09-11T07:48:33Z</time>
      </trkpt>
      <trkpt lat="43.96271" lon="5.18542">
        <ele>550.01</ele>
        <time>2017-09-11T07:49:03Z</time>
      </trkpt>
      <trkpt lat="43.96269" lon="5.18542">
        <ele>550.01</ele>
        <time>2017-09-11T07:49:23Z</time>
      </trkpt>
      <trkpt lat="43.96258" lon="5.18538">
        <ele>550.01</ele>
        <time>2017-09-11T07:49:41Z</time>
      </trkpt>
      <trkpt lat="43.96244" lon="5.18527">
        <ele>550.97</ele>
        <time>2017-09-11T07:49:58Z</time>
      </trkpt>
      <trkpt lat="43.96229" lon="5.18516">
        <ele>551.93</ele>
        <time>2017-09-11T07:50:16Z</time>
      </trkpt>
      <trkpt lat="43.96215" lon="5.18498">
        <ele>553.38</ele>
        <time>2017-09-11T07:50:37Z</time>
      </trkpt>
      <trkpt lat="43.96211" lon="5.1849">
        <ele>554.34</ele>
        <time>2017-09-11T07:50:44Z</time>
      </trkpt>
      <trkpt lat="43.96199" lon="5.18471">
        <ele>555.78</ele>
        <time>2017-09-11T07:51:03Z</time>
      </trkpt>
      <trkpt lat="43.96186" lon="5.18457">
        <ele>558.18</ele>
        <time>2017-09-11T07:51:21Z</time>
      </trkpt>
      <trkpt lat="43.96169" lon="5.18438">
        <ele>559.14</ele>
        <time>2017-09-11T07:51:43Z</time>
      </trkpt>
      <trkpt lat="43.96153" lon="5.18421">
        <ele>560.59</ele>
        <time>2017-09-11T07:52:04Z</time>
      </trkpt>
      <trkpt lat="43.96137" lon="5.18405">
        <ele>561.55</ele>
        <time>2017-09-11T07:52:24Z</time>
      </trkpt>
      <trkpt lat="43.96117" lon="5.18389">
        <ele>562.99</ele>
        <time>2017-09-11T07:52:46Z</time>
      </trkpt>
      <trkpt lat="43.96103" lon="5.18374">
        <ele>563.95</ele>
        <time>2017-09-11T07:53:04Z</time>
      </trkpt>
      <trkpt lat="43.96092" lon="5.18359">
        <ele>565.87</ele>
        <time>2017-09-11T07:53:22Z</time>
      </trkpt>
      <trkpt lat="43.96083" lon="5.18341">
        <ele>567.8</ele>
        <time>2017-09-11T07:53:39Z</time>
      </trkpt>
      <trkpt lat="43.96076" lon="5.18323">
        <ele>569.24</ele>
        <time>2017-09-11T07:53:56Z</time>
      </trkpt>
      <trkpt lat="43.96069" lon="5.18305">
        <ele>571.16</ele>
        <time>2017-09-11T07:54:13Z</time>
      </trkpt>
      <trkpt lat="43.96064" lon="5.18288">
        <ele>573.08</ele>
        <time>2017-09-11T07:54:29Z</time>
      </trkpt>
      <trkpt lat="43.96058" lon="5.18268">
        <ele>574.53</ele>
        <time>2017-09-11T07:54:47Z</time>
      </trkpt>
      <trkpt lat="43.96053" lon="5.18248">
        <ele>576.93</ele>
        <time>2017-09-11T07:55:04Z</time>
      </trkpt>
      <trkpt lat="43.96046" lon="5.18225">
        <ele>578.85</ele>
        <time>2017-09-11T07:55:22Z</time>
      </trkpt>
      <trkpt lat="43.96039" lon="5.18201">
        <ele>580.29</ele>
        <time>2017-09-11T07:55:41Z</time>
      </trkpt>
      <trkpt lat="43.96031" lon="5.18171">
        <ele>581.25</ele>
        <time>2017-09-11T07:56:02Z</time>
      </trkpt>
      <trkpt lat="43.96027" lon="5.18144">
        <ele>582.22</ele>
        <time>2017-09-11T07:56:21Z</time>
      </trkpt>
      <trkpt lat="43.9602" lon="5.1811">
        <ele>582.22</ele>
        <time>2017-09-11T07:56:44Z</time>
      </trkpt>
      <trkpt lat="43.9602" lon="5.18079">
        <ele>581.25</ele>
        <time>2017-09-11T07:57:05Z</time>
      </trkpt>
      <trkpt lat="43.96021" lon="5.18047">
        <ele>579.33</ele>
        <time>2017-09-11T07:57:27Z</time>
      </trkpt>
      <trkpt lat="43.96016" lon="5.18016">
        <ele>579.33</ele>
        <time>2017-09-11T07:57:48Z</time>
      </trkpt>
      <trkpt lat="43.96011" lon="5.18006">
        <ele>579.33</ele>
        <time>2017-09-11T07:58:00Z</time>
      </trkpt>
      <trkpt lat="43.96007" lon="5.17994">
        <ele>578.85</ele>
        <time>2017-09-11T07:58:11Z</time>
      </trkpt>
      <trkpt lat="43.96004" lon="5.17993">
        <ele>578.85</ele>
        <time>2017-09-11T07:58:14Z</time>
      </trkpt>
      <trkpt lat="43.96011" lon="5.17992">
        <ele>578.37</ele>
        <time>2017-09-11T07:58:28Z</time>
      </trkpt>
      <trkpt lat="43.96015" lon="5.17993">
        <ele>578.37</ele>
        <time>2017-09-11T07:58:43Z</time>
      </trkpt>
      <trkpt lat="43.96033" lon="5.17994">
        <ele>578.37</ele>
        <time>2017-09-11T07:59:02Z</time>
      </trkpt>
      <trkpt lat="43.96053" lon="5.17996">
        <ele>578.37</ele>
        <time>2017-09-11T07:59:22Z</time>
      </trkpt>
      <trkpt lat="43.96069" lon="5.1799">
        <ele>577.41</ele>
        <time>2017-09-11T07:59:41Z</time>
      </trkpt>
      <trkpt lat="43.96083" lon="5.17979">
        <ele>575.97</ele>
        <time>2017-09-11T07:59:59Z</time>
      </trkpt>
      <trkpt lat="43.96095" lon="5.17975">
        <ele>575.01</ele>
        <time>2017-09-11T08:00:16Z</time>
      </trkpt>
      <trkpt lat="43.96107" lon="5.1798">
        <ele>573.56</ele>
        <time>2017-09-11T08:00:33Z</time>
      </trkpt>
      <trkpt lat="43.96114" lon="5.17979">
        <ele>571.16</ele>
        <time>2017-09-11T08:00:47Z</time>
      </trkpt>
      <trkpt lat="43.96124" lon="5.17976">
        <ele>568.76</ele>
        <time>2017-09-11T08:01:03Z</time>
      </trkpt>
      <trkpt lat="43.96138" lon="5.17976">
        <ele>567.32</ele>
        <time>2017-09-11T08:01:19Z</time>
      </trkpt>
      <trkpt lat="43.9616" lon="5.17985">
        <ele>566.35</ele>
        <time>2017-09-11T08:01:41Z</time>
      </trkpt>
      <trkpt lat="43.96161" lon="5.17985">
        <ele>566.35</ele>
        <time>2017-09-11T08:01:42Z</time>
      </trkpt>
      <trkpt lat="43.96181" lon="5.17989">
        <ele>564.43</ele>
        <time>2017-09-11T08:02:02Z</time>
      </trkpt>
      <trkpt lat="43.96183" lon="5.17989">
        <ele>563.47</ele>
        <time>2017-09-11T08:02:04Z</time>
      </trkpt>
      <trkpt lat="43.96186" lon="5.17989">
        <ele>564.91</ele>
        <time>2017-09-11T08:02:07Z</time>
      </trkpt>
      <trkpt lat="43.96189" lon="5.17991">
        <ele>563.95</ele>
        <time>2017-09-11T08:02:10Z</time>
      </trkpt>
      <trkpt lat="43.96194" lon="5.17993">
        <ele>563.95</ele>
        <time>2017-09-11T08:02:16Z</time>
      </trkpt>
      <trkpt lat="43.9621" lon="5.18">
        <ele>564.91</ele>
        <time>2017-09-11T08:02:35Z</time>
      </trkpt>
      <trkpt lat="43.96219" lon="5.17995">
        <ele>565.87</ele>
        <time>2017-09-11T08:02:52Z</time>
      </trkpt>
      <trkpt lat="43.96221" lon="5.17991">
        <ele>564.43</ele>
        <time>2017-09-11T08:02:57Z</time>
      </trkpt>
      <trkpt lat="43.96229" lon="5.17982">
        <ele>563.95</ele>
        <time>2017-09-11T08:03:09Z</time>
      </trkpt>
      <trkpt lat="43.96243" lon="5.17969">
        <ele>563.95</ele>
        <time>2017-09-11T08:03:28Z</time>
      </trkpt>
      <trkpt lat="43.96258" lon="5.17953">
        <ele>562.99</ele>
        <time>2017-09-11T08:03:46Z</time>
      </trkpt>
      <trkpt lat="43.96273" lon="5.17942">
        <ele>562.99</ele>
        <time>2017-09-11T08:04:02Z</time>
      </trkpt>
      <trkpt lat="43.96285" lon="5.17945">
        <ele>564.91</ele>
        <time>2017-09-11T08:04:18Z</time>
      </trkpt>
      <trkpt lat="43.96301" lon="5.17949">
        <ele>566.35</ele>
        <time>2017-09-11T08:04:34Z</time>
      </trkpt>
      <trkpt lat="43.96313" lon="5.17944">
        <ele>566.83</ele>
        <time>2017-09-11T08:04:49Z</time>
      </trkpt>
      <trkpt lat="43.96318" lon="5.17924">
        <ele>566.83</ele>
        <time>2017-09-11T08:05:06Z</time>
      </trkpt>
      <trkpt lat="43.96319" lon="5.17913">
        <ele>566.83</ele>
        <time>2017-09-11T08:05:15Z</time>
      </trkpt>
      <trkpt lat="43.96322" lon="5.17897">
        <ele>565.39</ele>
        <time>2017-09-11T08:05:28Z</time>
      </trkpt>
      <trkpt lat="43.96323" lon="5.17897">
        <ele>565.39</ele>
        <time>2017-09-11T08:05:32Z</time>
      </trkpt>
      <trkpt lat="43.9632" lon="5.17896">
        <ele>565.87</ele>
        <time>2017-09-11T08:05:49Z</time>
      </trkpt>
      <trkpt lat="43.96322" lon="5.17896">
        <ele>564.91</ele>
        <time>2017-09-11T08:06:08Z</time>
      </trkpt>
      <trkpt lat="43.96322" lon="5.17897">
        <ele>564.91</ele>
        <time>2017-09-11T08:06:30Z</time>
      </trkpt>
      <trkpt lat="43.96323" lon="5.17899">
        <ele>565.39</ele>
        <time>2017-09-11T08:06:49Z</time>
      </trkpt>
      <trkpt lat="43.96322" lon="5.17899">
        <ele>565.39</ele>
        <time>2017-09-11T08:07:08Z</time>
      </trkpt>
      <trkpt lat="43.96325" lon="5.17894">
        <ele>565.39</ele>
        <time>2017-09-11T08:07:18Z</time>
      </trkpt>
      <trkpt lat="43.96337" lon="5.17886">
        <ele>564.91</ele>
        <time>2017-09-11T08:07:35Z</time>
      </trkpt>
      <trkpt lat="43.96351" lon="5.1788">
        <ele>564.43</ele>
        <time>2017-09-11T08:07:50Z</time>
      </trkpt>
      <trkpt lat="43.96354" lon="5.1787">
        <ele>563.47</ele>
        <time>2017-09-11T08:08:07Z</time>
      </trkpt>
      <trkpt lat="43.96345" lon="5.17863">
        <ele>562.99</ele>
        <time>2017-09-11T08:08:19Z</time>
      </trkpt>
      <trkpt lat="43.96343" lon="5.17862">
        <ele>564.91</ele>
        <time>2017-09-11T08:08:21Z</time>
      </trkpt>
      <trkpt lat="43.96338" lon="5.17855">
        <ele>562.03</ele>
        <time>2017-09-11T08:08:28Z</time>
      </trkpt>
      <trkpt lat="43.96331" lon="5.17848">
        <ele>562.51</ele>
        <time>2017-09-11T08:08:38Z</time>
      </trkpt>
      <trkpt lat="43.9633" lon="5.17848">
        <ele>562.51</ele>
        <time>2017-09-11T08:08:39Z</time>
      </trkpt>
      <trkpt lat="43.96329" lon="5.17846">
        <ele>560.59</ele>
        <time>2017-09-11T08:08:41Z</time>
      </trkpt>
      <trkpt lat="43.96327" lon="5.17845">
        <ele>562.03</ele>
        <time>2017-09-11T08:08:43Z</time>
      </trkpt>
      <trkpt lat="43.96314" lon="5.17835">
        <ele>560.59</ele>
        <time>2017-09-11T08:09:02Z</time>
      </trkpt>
      <trkpt lat="43.96297" lon="5.17823">
        <ele>559.14</ele>
        <time>2017-09-11T08:09:21Z</time>
      </trkpt>
      <trkpt lat="43.96292" lon="5.17805">
        <ele>557.22</ele>
        <time>2017-09-11T08:09:38Z</time>
      </trkpt>
      <trkpt lat="43.96294" lon="5.17785">
        <ele>555.78</ele>
        <time>2017-09-11T08:09:55Z</time>
      </trkpt>
      <trkpt lat="43.96299" lon="5.17769">
        <ele>554.34</ele>
        <time>2017-09-11T08:10:11Z</time>
      </trkpt>
      <trkpt lat="43.9631" lon="5.17758">
        <ele>553.38</ele>
        <time>2017-09-11T08:10:26Z</time>
      </trkpt>
      <trkpt lat="43.96311" lon="5.17757">
        <ele>553.38</ele>
        <time>2017-09-11T08:10:28Z</time>
      </trkpt>
      <trkpt lat="43.96326" lon="5.17747">
        <ele>551.45</ele>
        <time>2017-09-11T08:10:45Z</time>
      </trkpt>
      <trkpt lat="43.96343" lon="5.17736">
        <ele>550.01</ele>
        <time>2017-09-11T08:11:04Z</time>
      </trkpt>
      <trkpt lat="43.96356" lon="5.17728">
        <ele>548.09</ele>
        <time>2017-09-11T08:11:21Z</time>
      </trkpt>
      <trkpt lat="43.96374" lon="5.1772">
        <ele>547.61</ele>
        <time>2017-09-11T08:11:41Z</time>
      </trkpt>
      <trkpt lat="43.96392" lon="5.17717">
        <ele>546.65</ele>
        <time>2017-09-11T08:11:57Z</time>
      </trkpt>
      <trkpt lat="43.96412" lon="5.17711">
        <ele>546.65</ele>
        <time>2017-09-11T08:12:16Z</time>
      </trkpt>
      <trkpt lat="43.96431" lon="5.17706">
        <ele>545.69</ele>
        <time>2017-09-11T08:12:33Z</time>
      </trkpt>
      <trkpt lat="43.96447" lon="5.17703">
        <ele>544.72</ele>
        <time>2017-09-11T08:12:50Z</time>
      </trkpt>
      <trkpt lat="43.96463" lon="5.17705">
        <ele>543.28</ele>
        <time>2017-09-11T08:13:07Z</time>
      </trkpt>
      <trkpt lat="43.96468" lon="5.17704">
        <ele>540.4</ele>
        <time>2017-09-11T08:13:15Z</time>
      </trkpt>
      <trkpt lat="43.96468" lon="5.17702">
        <ele>544.24</ele>
        <time>2017-09-11T08:13:16Z</time>
      </trkpt>
      <trkpt lat="43.96465" lon="5.17703">
        <ele>542.32</ele>
        <time>2017-09-11T08:13:39Z</time>
      </trkpt>
      <trkpt lat="43.96464" lon="5.17702">
        <ele>543.76</ele>
        <time>2017-09-11T08:13:56Z</time>
      </trkpt>
      <trkpt lat="43.96464" lon="5.17703">
        <ele>542.32</ele>
        <time>2017-09-11T08:13:58Z</time>
      </trkpt>
      <trkpt lat="43.96477" lon="5.17703">
        <ele>541.84</ele>
        <time>2017-09-11T08:14:12Z</time>
      </trkpt>
      <trkpt lat="43.96489" lon="5.17691">
        <ele>539.92</ele>
        <time>2017-09-11T08:14:28Z</time>
      </trkpt>
      <trkpt lat="43.96493" lon="5.17674">
        <ele>538.96</ele>
        <time>2017-09-11T08:14:43Z</time>
      </trkpt>
      <trkpt lat="43.96501" lon="5.17654">
        <ele>537.51</ele>
        <time>2017-09-11T08:15:01Z</time>
      </trkpt>
      <trkpt lat="43.96514" lon="5.17635">
        <ele>537.03</ele>
        <time>2017-09-11T08:15:20Z</time>
      </trkpt>
      <trkpt lat="43.96518" lon="5.17629">
        <ele>537.03</ele>
        <time>2017-09-11T08:15:25Z</time>
      </trkpt>
      <trkpt lat="43.96534" lon="5.17617">
        <ele>538.48</ele>
        <time>2017-09-11T08:15:42Z</time>
      </trkpt>
      <trkpt lat="43.96538" lon="5.17613">
        <ele>538.48</ele>
        <time>2017-09-11T08:15:48Z</time>
      </trkpt>
      <trkpt lat="43.96542" lon="5.17591">
        <ele>536.55</ele>
        <time>2017-09-11T08:16:05Z</time>
      </trkpt>
      <trkpt lat="43.96541" lon="5.17568">
        <ele>535.11</ele>
        <time>2017-09-11T08:16:24Z</time>
      </trkpt>
      <trkpt lat="43.96547" lon="5.17547">
        <ele>535.11</ele>
        <time>2017-09-11T08:16:41Z</time>
      </trkpt>
      <trkpt lat="43.96557" lon="5.17526">
        <ele>535.11</ele>
        <time>2017-09-11T08:16:58Z</time>
      </trkpt>
      <trkpt lat="43.96562" lon="5.17506">
        <ele>535.11</ele>
        <time>2017-09-11T08:17:16Z</time>
      </trkpt>
      <trkpt lat="43.96567" lon="5.17485">
        <ele>535.11</ele>
        <time>2017-09-11T08:17:33Z</time>
      </trkpt>
      <trkpt lat="43.96573" lon="5.17461">
        <ele>535.11</ele>
        <time>2017-09-11T08:17:50Z</time>
      </trkpt>
      <trkpt lat="43.96576" lon="5.17452">
        <ele>535.11</ele>
        <time>2017-09-11T08:18:04Z</time>
      </trkpt>
      <trkpt lat="43.96574" lon="5.17451">
        <ele>535.11</ele>
        <time>2017-09-11T08:18:28Z</time>
      </trkpt>
      <trkpt lat="43.96575" lon="5.17446">
        <ele>535.11</ele>
        <time>2017-09-11T08:18:47Z</time>
      </trkpt>
      <trkpt lat="43.96574" lon="5.17445">
        <ele>534.63</ele>
        <time>2017-09-11T08:19:01Z</time>
      </trkpt>
      <trkpt lat="43.96574" lon="5.17445">
        <ele>533.19</ele>
        <time>2017-09-11T08:19:03Z</time>
      </trkpt>
      <trkpt lat="43.96575" lon="5.17447">
        <ele>534.63</ele>
        <time>2017-09-11T08:19:05Z</time>
      </trkpt>
      <trkpt lat="43.96575" lon="5.17444">
        <ele>534.15</ele>
        <time>2017-09-11T08:19:26Z</time>
      </trkpt>
      <trkpt lat="43.96575" lon="5.17443">
        <ele>534.15</ele>
        <time>2017-09-11T08:20:15Z</time>
      </trkpt>
      <trkpt lat="43.96575" lon="5.17443">
        <ele>534.63</ele>
        <time>2017-09-11T08:20:54Z</time>
      </trkpt>
      <trkpt lat="43.96573" lon="5.17443">
        <ele>534.63</ele>
        <time>2017-09-11T08:21:35Z</time>
      </trkpt>
      <trkpt lat="43.96572" lon="5.17443">
        <ele>534.63</ele>
        <time>2017-09-11T08:22:20Z</time>
      </trkpt>
      <trkpt lat="43.96574" lon="5.17444">
        <ele>534.63</ele>
        <time>2017-09-11T08:22:58Z</time>
      </trkpt>
      <trkpt lat="43.96576" lon="5.17442">
        <ele>535.11</ele>
        <time>2017-09-11T08:23:34Z</time>
      </trkpt>
      <trkpt lat="43.96575" lon="5.17442">
        <ele>535.11</ele>
        <time>2017-09-11T08:24:18Z</time>
      </trkpt>
      <trkpt lat="43.96577" lon="5.17443">
        <ele>535.11</ele>
        <time>2017-09-11T08:25:01Z</time>
      </trkpt>
      <trkpt lat="43.96572" lon="5.17442">
        <ele>535.59</ele>
        <time>2017-09-11T08:25:52Z</time>
      </trkpt>
      <trkpt lat="43.96576" lon="5.17445">
        <ele>535.59</ele>
        <time>2017-09-11T08:26:41Z</time>
      </trkpt>
      <trkpt lat="43.96577" lon="5.17443">
        <ele>535.59</ele>
        <time>2017-09-11T08:27:26Z</time>
      </trkpt>
      <trkpt lat="43.96573" lon="5.17444">
        <ele>536.07</ele>
        <time>2017-09-11T08:28:05Z</time>
      </trkpt>
      <trkpt lat="43.96575" lon="5.17446">
        <ele>536.07</ele>
        <time>2017-09-11T08:28:24Z</time>
      </trkpt>
      <trkpt lat="43.96574" lon="5.17447">
        <ele>537.03</ele>
        <time>2017-09-11T08:28:41Z</time>
      </trkpt>
      <trkpt lat="43.96575" lon="5.17447">
        <ele>534.15</ele>
        <time>2017-09-11T08:28:45Z</time>
      </trkpt>
      <trkpt lat="43.96575" lon="5.17447">
        <ele>538.48</ele>
        <time>2017-09-11T08:28:46Z</time>
      </trkpt>
      <trkpt lat="43.96575" lon="5.17447">
        <ele>535.11</ele>
        <time>2017-09-11T08:28:49Z</time>
      </trkpt>
      <trkpt lat="43.96575" lon="5.17447">
        <ele>537.99</ele>
        <time>2017-09-11T08:28:50Z</time>
      </trkpt>
      <trkpt lat="43.96576" lon="5.17448">
        <ele>537.99</ele>
        <time>2017-09-11T08:29:03Z</time>
      </trkpt>
      <trkpt lat="43.96576" lon="5.17453">
        <ele>538.48</ele>
        <time>2017-09-11T08:29:23Z</time>
      </trkpt>
      <trkpt lat="43.96574" lon="5.17454">
        <ele>538.48</ele>
        <time>2017-09-11T08:29:50Z</time>
      </trkpt>
      <trkpt lat="43.96575" lon="5.17454">
        <ele>538.48</ele>
        <time>2017-09-11T08:30:10Z</time>
      </trkpt>
      <trkpt lat="43.96576" lon="5.17454">
        <ele>538.48</ele>
        <time>2017-09-11T08:30:32Z</time>
      </trkpt>
      <trkpt lat="43.96575" lon="5.17453">
        <ele>538.48</ele>
        <time>2017-09-11T08:30:50Z</time>
      </trkpt>
      <trkpt lat="43.96575" lon="5.17453">
        <ele>538.48</ele>
        <time>2017-09-11T08:31:13Z</time>
      </trkpt>
      <trkpt lat="43.96573" lon="5.17454">
        <ele>538.48</ele>
        <time>2017-09-11T08:31:38Z</time>
      </trkpt>
      <trkpt lat="43.96573" lon="5.17455">
        <ele>538.48</ele>
        <time>2017-09-11T08:32:02Z</time>
      </trkpt>
      <trkpt lat="43.96572" lon="5.17458">
        <ele>538.96</ele>
        <time>2017-09-11T08:32:34Z</time>
      </trkpt>
      <trkpt lat="43.96571" lon="5.17456">
        <ele>538.96</ele>
        <time>2017-09-11T08:32:55Z</time>
      </trkpt>
      <trkpt lat="43.96571" lon="5.17454">
        <ele>539.44</ele>
        <time>2017-09-11T08:33:19Z</time>
      </trkpt>
      <trkpt lat="43.96571" lon="5.17453">
        <ele>539.44</ele>
        <time>2017-09-11T08:33:41Z</time>
      </trkpt>
      <trkpt lat="43.96572" lon="5.17456">
        <ele>539.44</ele>
        <time>2017-09-11T08:34:03Z</time>
      </trkpt>
      <trkpt lat="43.96572" lon="5.17456">
        <ele>539.44</ele>
        <time>2017-09-11T08:34:33Z</time>
      </trkpt>
      <trkpt lat="43.96571" lon="5.17448">
        <ele>539.44</ele>
        <time>2017-09-11T08:34:55Z</time>
      </trkpt>
      <trkpt lat="43.96572" lon="5.17431">
        <ele>540.4</ele>
        <time>2017-09-11T08:35:10Z</time>
      </trkpt>
      <trkpt lat="43.96569" lon="5.1742">
        <ele>540.88</ele>
        <time>2017-09-11T08:35:26Z</time>
      </trkpt>
      <trkpt lat="43.96563" lon="5.17407">
        <ele>541.84</ele>
        <time>2017-09-11T08:35:43Z</time>
      </trkpt>
      <trkpt lat="43.96551" lon="5.174">
        <ele>543.76</ele>
        <time>2017-09-11T08:36:00Z</time>
      </trkpt>
      <trkpt lat="43.96538" lon="5.17393">
        <ele>545.69</ele>
        <time>2017-09-11T08:36:19Z</time>
      </trkpt>
      <trkpt lat="43.96526" lon="5.17386">
        <ele>546.65</ele>
        <time>2017-09-11T08:36:34Z</time>
      </trkpt>
      <trkpt lat="43.96525" lon="5.17386">
        <ele>547.13</ele>
        <time>2017-09-11T08:36:35Z</time>
      </trkpt>
      <trkpt lat="43.96516" lon="5.17372">
        <ele>548.09</ele>
        <time>2017-09-11T08:36:51Z</time>
      </trkpt>
      <trkpt lat="43.96506" lon="5.17356">
        <ele>549.53</ele>
        <time>2017-09-11T08:37:10Z</time>
      </trkpt>
      <trkpt lat="43.96496" lon="5.17342">
        <ele>550.97</ele>
        <time>2017-09-11T08:37:26Z</time>
      </trkpt>
      <trkpt lat="43.9648" lon="5.17319">
        <ele>551.45</ele>
        <time>2017-09-11T08:37:43Z</time>
      </trkpt>
      <trkpt lat="43.96465" lon="5.17311">
        <ele>552.9</ele>
        <time>2017-09-11T08:38:00Z</time>
      </trkpt>
      <trkpt lat="43.96449" lon="5.17302">
        <ele>553.38</ele>
        <time>2017-09-11T08:38:17Z</time>
      </trkpt>
      <trkpt lat="43.9643" lon="5.17294">
        <ele>553.86</ele>
        <time>2017-09-11T08:38:36Z</time>
      </trkpt>
      <trkpt lat="43.96415" lon="5.17279">
        <ele>553.86</ele>
        <time>2017-09-11T08:38:55Z</time>
      </trkpt>
      <trkpt lat="43.964" lon="5.17264">
        <ele>552.41</ele>
        <time>2017-09-11T08:39:15Z</time>
      </trkpt>
      <trkpt lat="43.96383" lon="5.17252">
        <ele>552.41</ele>
        <time>2017-09-11T08:39:35Z</time>
      </trkpt>
      <trkpt lat="43.96373" lon="5.17252">
        <ele>550.49</ele>
        <time>2017-09-11T08:39:50Z</time>
      </trkpt>
      <trkpt lat="43.9636" lon="5.17253">
        <ele>549.05</ele>
        <time>2017-09-11T08:40:07Z</time>
      </trkpt>
      <trkpt lat="43.96348" lon="5.17251">
        <ele>547.61</ele>
        <time>2017-09-11T08:40:23Z</time>
      </trkpt>
      <trkpt lat="43.96334" lon="5.1725">
        <ele>545.69</ele>
        <time>2017-09-11T08:40:41Z</time>
      </trkpt>
      <trkpt lat="43.96321" lon="5.17252">
        <ele>544.24</ele>
        <time>2017-09-11T08:40:56Z</time>
      </trkpt>
      <trkpt lat="43.96307" lon="5.17252">
        <ele>542.8</ele>
        <time>2017-09-11T08:41:11Z</time>
      </trkpt>
      <trkpt lat="43.96292" lon="5.1725">
        <ele>541.84</ele>
        <time>2017-09-11T08:41:27Z</time>
      </trkpt>
      <trkpt lat="43.96277" lon="5.17246">
        <ele>541.36</ele>
        <time>2017-09-11T08:41:44Z</time>
      </trkpt>
      <trkpt lat="43.96275" lon="5.17242">
        <ele>540.88</ele>
        <time>2017-09-11T08:42:07Z</time>
      </trkpt>
      <trkpt lat="43.96261" lon="5.1724">
        <ele>540.88</ele>
        <time>2017-09-11T08:42:23Z</time>
      </trkpt>
      <trkpt lat="43.96243" lon="5.17243">
        <ele>540.88</ele>
        <time>2017-09-11T08:42:41Z</time>
      </trkpt>
      <trkpt lat="43.96226" lon="5.17242">
        <ele>540.88</ele>
        <time>2017-09-11T08:42:58Z</time>
      </trkpt>
      <trkpt lat="43.96213" lon="5.17236">
        <ele>542.32</ele>
        <time>2017-09-11T08:43:15Z</time>
      </trkpt>
      <trkpt lat="43.96198" lon="5.17231">
        <ele>542.8</ele>
        <time>2017-09-11T08:43:30Z</time>
      </trkpt>
      <trkpt lat="43.96184" lon="5.17228">
        <ele>542.8</ele>
        <time>2017-09-11T08:43:45Z</time>
      </trkpt>
      <trkpt lat="43.96166" lon="5.17234">
        <ele>543.76</ele>
        <time>2017-09-11T08:44:02Z</time>
      </trkpt>
      <trkpt lat="43.96151" lon="5.17245">
        <ele>543.76</ele>
        <time>2017-09-11T08:44:18Z</time>
      </trkpt>
      <trkpt lat="43.96133" lon="5.17252">
        <ele>544.24</ele>
        <time>2017-09-11T08:44:34Z</time>
      </trkpt>
      <trkpt lat="43.96114" lon="5.1725">
        <ele>544.72</ele>
        <time>2017-09-11T08:44:52Z</time>
      </trkpt>
      <trkpt lat="43.96094" lon="5.17241">
        <ele>546.17</ele>
        <time>2017-09-11T08:45:11Z</time>
      </trkpt>
      <trkpt lat="43.96079" lon="5.17228">
        <ele>547.13</ele>
        <time>2017-09-11T08:45:27Z</time>
      </trkpt>
      <trkpt lat="43.96063" lon="5.1722">
        <ele>547.61</ele>
        <time>2017-09-11T08:45:45Z</time>
      </trkpt>
      <trkpt lat="43.96048" lon="5.1722">
        <ele>549.05</ele>
        <time>2017-09-11T08:46:02Z</time>
      </trkpt>
      <trkpt lat="43.96029" lon="5.17225">
        <ele>549.53</ele>
        <time>2017-09-11T08:46:21Z</time>
      </trkpt>
      <trkpt lat="43.96009" lon="5.17227">
        <ele>550.01</ele>
        <time>2017-09-11T08:46:40Z</time>
      </trkpt>
      <trkpt lat="43.95994" lon="5.17224">
        <ele>551.45</ele>
        <time>2017-09-11T08:46:55Z</time>
      </trkpt>
      <trkpt lat="43.95988" lon="5.17224">
        <ele>551.93</ele>
        <time>2017-09-11T08:47:00Z</time>
      </trkpt>
      <trkpt lat="43.95974" lon="5.17222">
        <ele>554.34</ele>
        <time>2017-09-11T08:47:15Z</time>
      </trkpt>
      <trkpt lat="43.95962" lon="5.17212">
        <ele>554.82</ele>
        <time>2017-09-11T08:47:31Z</time>
      </trkpt>
      <trkpt lat="43.95944" lon="5.17208">
        <ele>555.78</ele>
        <time>2017-09-11T08:47:48Z</time>
      </trkpt>
      <trkpt lat="43.95936" lon="5.17208">
        <ele>556.26</ele>
        <time>2017-09-11T08:47:55Z</time>
      </trkpt>
      <trkpt lat="43.95925" lon="5.17209">
        <ele>557.22</ele>
        <time>2017-09-11T08:48:05Z</time>
      </trkpt>
      <trkpt lat="43.9591" lon="5.17201">
        <ele>558.18</ele>
        <time>2017-09-11T08:48:22Z</time>
      </trkpt>
      <trkpt lat="43.95895" lon="5.17194">
        <ele>558.66</ele>
        <time>2017-09-11T08:48:38Z</time>
      </trkpt>
      <trkpt lat="43.95882" lon="5.17191">
        <ele>559.62</ele>
        <time>2017-09-11T08:48:55Z</time>
      </trkpt>
      <trkpt lat="43.95866" lon="5.17187">
        <ele>561.07</ele>
        <time>2017-09-11T08:49:13Z</time>
      </trkpt>
      <trkpt lat="43.95856" lon="5.17187">
        <ele>561.55</ele>
        <time>2017-09-11T08:49:22Z</time>
      </trkpt>
      <trkpt lat="43.95839" lon="5.17184">
        <ele>562.99</ele>
        <time>2017-09-11T08:49:40Z</time>
      </trkpt>
      <trkpt lat="43.95824" lon="5.17185">
        <ele>564.91</ele>
        <time>2017-09-11T08:49:59Z</time>
      </trkpt>
      <trkpt lat="43.95814" lon="5.17187">
        <ele>567.32</ele>
        <time>2017-09-11T08:50:15Z</time>
      </trkpt>
      <trkpt lat="43.95803" lon="5.17181">
        <ele>569.72</ele>
        <time>2017-09-11T08:50:30Z</time>
      </trkpt>
      <trkpt lat="43.95799" lon="5.17173">
        <ele>570.2</ele>
        <time>2017-09-11T08:50:43Z</time>
      </trkpt>
      <trkpt lat="43.95797" lon="5.17173">
        <ele>569.72</ele>
        <time>2017-09-11T08:50:53Z</time>
      </trkpt>
      <trkpt lat="43.95794" lon="5.17172">
        <ele>569.72</ele>
        <time>2017-09-11T08:51:15Z</time>
      </trkpt>
      <trkpt lat="43.95798" lon="5.17169">
        <ele>569.72</ele>
        <time>2017-09-11T08:51:46Z</time>
      </trkpt>
      <trkpt lat="43.95797" lon="5.17169">
        <ele>570.2</ele>
        <time>2017-09-11T08:52:05Z</time>
      </trkpt>
      <trkpt lat="43.95797" lon="5.1717">
        <ele>569.24</ele>
        <time>2017-09-11T08:52:35Z</time>
      </trkpt>
      <trkpt lat="43.95792" lon="5.1717">
        <ele>572.6</ele>
        <time>2017-09-11T08:52:53Z</time>
      </trkpt>
      <trkpt lat="43.95786" lon="5.17167">
        <ele>570.2</ele>
        <time>2017-09-11T08:53:09Z</time>
      </trkpt>
      <trkpt lat="43.95774" lon="5.17165">
        <ele>572.12</ele>
        <time>2017-09-11T08:53:26Z</time>
      </trkpt>
      <trkpt lat="43.95763" lon="5.17163">
        <ele>574.53</ele>
        <time>2017-09-11T08:53:42Z</time>
      </trkpt>
      <trkpt lat="43.9575" lon="5.17155">
        <ele>575.97</ele>
        <time>2017-09-11T08:54:00Z</time>
      </trkpt>
      <trkpt lat="43.95736" lon="5.17153">
        <ele>577.89</ele>
        <time>2017-09-11T08:54:16Z</time>
      </trkpt>
      <trkpt lat="43.95723" lon="5.17149">
        <ele>579.81</ele>
        <time>2017-09-11T08:54:34Z</time>
      </trkpt>
      <trkpt lat="43.9571" lon="5.17137">
        <ele>581.73</ele>
        <time>2017-09-11T08:54:51Z</time>
      </trkpt>
      <trkpt lat="43.95695" lon="5.17129">
        <ele>582.7</ele>
        <time>2017-09-11T08:55:07Z</time>
      </trkpt>
      <trkpt lat="43.9568" lon="5.17119">
        <ele>584.14</ele>
        <time>2017-09-11T08:55:25Z</time>
      </trkpt>
      <trkpt lat="43.95664" lon="5.17109">
        <ele>586.06</ele>
        <time>2017-09-11T08:55:42Z</time>
      </trkpt>
      <trkpt lat="43.95654" lon="5.1709">
        <ele>587.02</ele>
        <time>2017-09-11T08:56:01Z</time>
      </trkpt>
      <trkpt lat="43.95643" lon="5.17077">
        <ele>588.46</ele>
        <time>2017-09-11T08:56:17Z</time>
      </trkpt>
      <trkpt lat="43.95633" lon="5.17069">
        <ele>589.43</ele>
        <time>2017-09-11T08:56:29Z</time>
      </trkpt>
      <trkpt lat="43.95622" lon="5.17057">
        <ele>590.87</ele>
        <time>2017-09-11T08:56:46Z</time>
      </trkpt>
      <trkpt lat="43.95617" lon="5.17053">
        <ele>592.31</ele>
        <time>2017-09-11T08:57:01Z</time>
      </trkpt>
      <trkpt lat="43.95616" lon="5.1705">
        <ele>592.79</ele>
        <time>2017-09-11T08:57:26Z</time>
      </trkpt>
      <trkpt lat="43.95616" lon="5.1705">
        <ele>592.79</ele>
        <time>2017-09-11T08:57:44Z</time>
      </trkpt>
      <trkpt lat="43.95612" lon="5.17053">
        <ele>592.79</ele>
        <time>2017-09-11T08:58:02Z</time>
      </trkpt>
      <trkpt lat="43.9561" lon="5.17054">
        <ele>592.79</ele>
        <time>2017-09-11T08:58:15Z</time>
      </trkpt>
      <trkpt lat="43.95615" lon="5.17056">
        <ele>592.79</ele>
        <time>2017-09-11T08:58:40Z</time>
      </trkpt>
      <trkpt lat="43.95617" lon="5.17052">
        <ele>592.79</ele>
        <time>2017-09-11T08:59:00Z</time>
      </trkpt>
      <trkpt lat="43.95619" lon="5.17051">
        <ele>593.27</ele>
        <time>2017-09-11T08:59:23Z</time>
      </trkpt>
      <trkpt lat="43.95613" lon="5.17051">
        <ele>593.27</ele>
        <time>2017-09-11T08:59:48Z</time>
      </trkpt>
      <trkpt lat="43.95616" lon="5.17051">
        <ele>593.75</ele>
        <time>2017-09-11T09:00:13Z</time>
      </trkpt>
      <trkpt lat="43.95618" lon="5.17051">
        <ele>593.75</ele>
        <time>2017-09-11T09:00:43Z</time>
      </trkpt>
      <trkpt lat="43.95619" lon="5.1705">
        <ele>593.75</ele>
        <time>2017-09-11T09:01:10Z</time>
      </trkpt>
      <trkpt lat="43.95614" lon="5.17058">
        <ele>594.23</ele>
        <time>2017-09-11T09:01:34Z</time>
      </trkpt>
      <trkpt lat="43.95611" lon="5.1706">
        <ele>595.19</ele>
        <time>2017-09-11T09:02:05Z</time>
      </trkpt>
      <trkpt lat="43.9561" lon="5.17065">
        <ele>593.75</ele>
        <time>2017-09-11T09:02:16Z</time>
      </trkpt>
      <trkpt lat="43.95604" lon="5.17084">
        <ele>593.75</ele>
        <time>2017-09-11T09:02:32Z</time>
      </trkpt>
      <trkpt lat="43.95594" lon="5.17109">
        <ele>594.71</ele>
        <time>2017-09-11T09:02:53Z</time>
      </trkpt>
      <trkpt lat="43.95592" lon="5.17142">
        <ele>593.75</ele>
        <time>2017-09-11T09:03:15Z</time>
      </trkpt>
      <trkpt lat="43.95591" lon="5.17165">
        <ele>592.31</ele>
        <time>2017-09-11T09:03:32Z</time>
      </trkpt>
      <trkpt lat="43.95588" lon="5.17194">
        <ele>591.35</ele>
        <time>2017-09-11T09:03:51Z</time>
      </trkpt>
      <trkpt lat="43.95586" lon="5.17202">
        <ele>590.87</ele>
        <time>2017-09-11T09:03:57Z</time>
      </trkpt>
      <trkpt lat="43.95582" lon="5.17231">
        <ele>589.43</ele>
        <time>2017-09-11T09:04:16Z</time>
      </trkpt>
      <trkpt lat="43.95586" lon="5.17253">
        <ele>588.46</ele>
        <time>2017-09-11T09:04:34Z</time>
      </trkpt>
      <trkpt lat="43.95586" lon="5.17265">
        <ele>587.98</ele>
        <time>2017-09-11T09:04:49Z</time>
      </trkpt>
      <trkpt lat="43.95584" lon="5.17272">
        <ele>587.98</ele>
        <time>2017-09-11T09:05:03Z</time>
      </trkpt>
      <trkpt lat="43.95581" lon="5.17297">
        <ele>587.5</ele>
        <time>2017-09-11T09:05:21Z</time>
      </trkpt>
      <trkpt lat="43.95574" lon="5.17322">
        <ele>587.5</ele>
        <time>2017-09-11T09:05:40Z</time>
      </trkpt>
      <trkpt lat="43.95566" lon="5.17339">
        <ele>588.46</ele>
        <time>2017-09-11T09:05:54Z</time>
      </trkpt>
      <trkpt lat="43.95557" lon="5.17366">
        <ele>588.95</ele>
        <time>2017-09-11T09:06:12Z</time>
      </trkpt>
      <trkpt lat="43.95553" lon="5.17389">
        <ele>590.39</ele>
        <time>2017-09-11T09:06:27Z</time>
      </trkpt>
      <trkpt lat="43.95553" lon="5.17416">
        <ele>591.83</ele>
        <time>2017-09-11T09:06:44Z</time>
      </trkpt>
      <trkpt lat="43.95555" lon="5.1744">
        <ele>592.79</ele>
        <time>2017-09-11T09:07:01Z</time>
      </trkpt>
      <trkpt lat="43.95557" lon="5.17467">
        <ele>594.71</ele>
        <time>2017-09-11T09:07:20Z</time>
      </trkpt>
      <trkpt lat="43.95555" lon="5.17473">
        <ele>594.71</ele>
        <time>2017-09-11T09:07:25Z</time>
      </trkpt>
      <trkpt lat="43.95546" lon="5.17482">
        <ele>596.64</ele>
        <time>2017-09-11T09:07:38Z</time>
      </trkpt>
      <trkpt lat="43.9554" lon="5.17479">
        <ele>596.64</ele>
        <time>2017-09-11T09:07:44Z</time>
      </trkpt>
      <trkpt lat="43.95524" lon="5.17466">
        <ele>597.6</ele>
        <time>2017-09-11T09:08:02Z</time>
      </trkpt>
      <trkpt lat="43.95506" lon="5.17461">
        <ele>600</ele>
        <time>2017-09-11T09:08:20Z</time>
      </trkpt>
      <trkpt lat="43.95488" lon="5.17458">
        <ele>600.96</ele>
        <time>2017-09-11T09:08:39Z</time>
      </trkpt>
      <trkpt lat="43.95473" lon="5.17458">
        <ele>601.92</ele>
        <time>2017-09-11T09:08:55Z</time>
      </trkpt>
      <trkpt lat="43.95461" lon="5.17458">
        <ele>603.85</ele>
        <time>2017-09-11T09:09:13Z</time>
      </trkpt>
      <trkpt lat="43.95458" lon="5.1746">
        <ele>603.85</ele>
        <time>2017-09-11T09:09:17Z</time>
      </trkpt>
      <trkpt lat="43.95452" lon="5.17468">
        <ele>604.33</ele>
        <time>2017-09-11T09:09:25Z</time>
      </trkpt>
      <trkpt lat="43.95442" lon="5.1749">
        <ele>605.77</ele>
        <time>2017-09-11T09:09:43Z</time>
      </trkpt>
      <trkpt lat="43.95428" lon="5.1751">
        <ele>606.73</ele>
        <time>2017-09-11T09:10:02Z</time>
      </trkpt>
      <trkpt lat="43.95411" lon="5.17526">
        <ele>607.69</ele>
        <time>2017-09-11T09:10:22Z</time>
      </trkpt>
      <trkpt lat="43.95393" lon="5.17546">
        <ele>609.13</ele>
        <time>2017-09-11T09:10:44Z</time>
      </trkpt>
      <trkpt lat="43.95378" lon="5.17564">
        <ele>610.09</ele>
        <time>2017-09-11T09:11:03Z</time>
      </trkpt>
      <trkpt lat="43.95366" lon="5.17587">
        <ele>610.09</ele>
        <time>2017-09-11T09:11:22Z</time>
      </trkpt>
      <trkpt lat="43.95355" lon="5.17615">
        <ele>610.57</ele>
        <time>2017-09-11T09:11:43Z</time>
      </trkpt>
      <trkpt lat="43.95345" lon="5.17637">
        <ele>611.06</ele>
        <time>2017-09-11T09:12:00Z</time>
      </trkpt>
      <trkpt lat="43.95335" lon="5.1766">
        <ele>611.54</ele>
        <time>2017-09-11T09:12:20Z</time>
      </trkpt>
      <trkpt lat="43.95316" lon="5.17679">
        <ele>612.02</ele>
        <time>2017-09-11T09:12:40Z</time>
      </trkpt>
      <trkpt lat="43.95296" lon="5.17691">
        <ele>612.98</ele>
        <time>2017-09-11T09:12:58Z</time>
      </trkpt>
      <trkpt lat="43.95275" lon="5.17705">
        <ele>613.46</ele>
        <time>2017-09-11T09:13:19Z</time>
      </trkpt>
      <trkpt lat="43.95261" lon="5.17717">
        <ele>613.46</ele>
        <time>2017-09-11T09:13:36Z</time>
      </trkpt>
      <trkpt lat="43.95259" lon="5.17719">
        <ele>613.46</ele>
        <time>2017-09-11T09:13:50Z</time>
      </trkpt>
      <trkpt lat="43.95259" lon="5.17717">
        <ele>612.02</ele>
        <time>2017-09-11T09:14:21Z</time>
      </trkpt>
      <trkpt lat="43.95261" lon="5.17719">
        <ele>612.98</ele>
        <time>2017-09-11T09:14:45Z</time>
      </trkpt>
      <trkpt lat="43.95258" lon="5.17721">
        <ele>611.54</ele>
        <time>2017-09-11T09:15:08Z</time>
      </trkpt>
      <trkpt lat="43.95258" lon="5.1772">
        <ele>614.9</ele>
        <time>2017-09-11T09:15:09Z</time>
      </trkpt>
      <trkpt lat="43.95259" lon="5.17723">
        <ele>613.46</ele>
        <time>2017-09-11T09:15:41Z</time>
      </trkpt>
      <trkpt lat="43.95258" lon="5.17732">
        <ele>613.46</ele>
        <time>2017-09-11T09:16:10Z</time>
      </trkpt>
      <trkpt lat="43.95262" lon="5.17755">
        <ele>613.46</ele>
        <time>2017-09-11T09:16:29Z</time>
      </trkpt>
      <trkpt lat="43.95266" lon="5.17776">
        <ele>613.46</ele>
        <time>2017-09-11T09:16:46Z</time>
      </trkpt>
      <trkpt lat="43.95268" lon="5.17791">
        <ele>613.46</ele>
        <time>2017-09-11T09:16:58Z</time>
      </trkpt>
      <trkpt lat="43.95275" lon="5.17816">
        <ele>613.46</ele>
        <time>2017-09-11T09:17:18Z</time>
      </trkpt>
      <trkpt lat="43.95276" lon="5.17841">
        <ele>613.46</ele>
        <time>2017-09-11T09:17:37Z</time>
      </trkpt>
      <trkpt lat="43.95276" lon="5.17853">
        <ele>613.46</ele>
        <time>2017-09-11T09:17:47Z</time>
      </trkpt>
      <trkpt lat="43.95268" lon="5.17881">
        <ele>612.98</ele>
        <time>2017-09-11T09:18:06Z</time>
      </trkpt>
      <trkpt lat="43.95261" lon="5.17907">
        <ele>612.5</ele>
        <time>2017-09-11T09:18:24Z</time>
      </trkpt>
      <trkpt lat="43.9526" lon="5.17928">
        <ele>612.5</ele>
        <time>2017-09-11T09:18:38Z</time>
      </trkpt>
      <trkpt lat="43.95258" lon="5.1796">
        <ele>611.54</ele>
        <time>2017-09-11T09:18:58Z</time>
      </trkpt>
      <trkpt lat="43.95253" lon="5.17987">
        <ele>611.06</ele>
        <time>2017-09-11T09:19:18Z</time>
      </trkpt>
      <trkpt lat="43.95248" lon="5.18018">
        <ele>610.09</ele>
        <time>2017-09-11T09:19:40Z</time>
      </trkpt>
      <trkpt lat="43.95243" lon="5.1805">
        <ele>609.61</ele>
        <time>2017-09-11T09:20:01Z</time>
      </trkpt>
      <trkpt lat="43.95237" lon="5.18081">
        <ele>609.13</ele>
        <time>2017-09-11T09:20:22Z</time>
      </trkpt>
      <trkpt lat="43.95236" lon="5.18086">
        <ele>609.13</ele>
        <time>2017-09-11T09:20:26Z</time>
      </trkpt>
      <trkpt lat="43.95234" lon="5.18102">
        <ele>609.13</ele>
        <time>2017-09-11T09:20:40Z</time>
      </trkpt>
      <trkpt lat="43.95231" lon="5.18125">
        <ele>609.61</ele>
        <time>2017-09-11T09:20:56Z</time>
      </trkpt>
      <trkpt lat="43.95227" lon="5.18154">
        <ele>609.61</ele>
        <time>2017-09-11T09:21:15Z</time>
      </trkpt>
      <trkpt lat="43.95222" lon="5.18183">
        <ele>609.61</ele>
        <time>2017-09-11T09:21:35Z</time>
      </trkpt>
      <trkpt lat="43.95221" lon="5.18197">
        <ele>610.09</ele>
        <time>2017-09-11T09:21:45Z</time>
      </trkpt>
      <trkpt lat="43.95219" lon="5.18232">
        <ele>610.09</ele>
        <time>2017-09-11T09:22:07Z</time>
      </trkpt>
      <trkpt lat="43.95218" lon="5.18241">
        <ele>610.57</ele>
        <time>2017-09-11T09:22:13Z</time>
      </trkpt>
      <trkpt lat="43.95215" lon="5.1827">
        <ele>611.54</ele>
        <time>2017-09-11T09:22:33Z</time>
      </trkpt>
      <trkpt lat="43.9521" lon="5.18292">
        <ele>612.5</ele>
        <time>2017-09-11T09:22:49Z</time>
      </trkpt>
      <trkpt lat="43.95204" lon="5.18316">
        <ele>613.46</ele>
        <time>2017-09-11T09:23:09Z</time>
      </trkpt>
      <trkpt lat="43.95203" lon="5.18344">
        <ele>613.94</ele>
        <time>2017-09-11T09:23:28Z</time>
      </trkpt>
      <trkpt lat="43.95196" lon="5.18367">
        <ele>614.9</ele>
        <time>2017-09-11T09:23:46Z</time>
      </trkpt>
      <trkpt lat="43.95188" lon="5.1839">
        <ele>615.38</ele>
        <time>2017-09-11T09:24:04Z</time>
      </trkpt>
      <trkpt lat="43.95179" lon="5.1842">
        <ele>616.34</ele>
        <time>2017-09-11T09:24:25Z</time>
      </trkpt>
      <trkpt lat="43.95175" lon="5.18451">
        <ele>616.34</ele>
        <time>2017-09-11T09:24:46Z</time>
      </trkpt>
      <trkpt lat="43.95174" lon="5.18474">
        <ele>616.82</ele>
        <time>2017-09-11T09:25:01Z</time>
      </trkpt>
      <trkpt lat="43.9517" lon="5.18498">
        <ele>615.38</ele>
        <time>2017-09-11T09:25:17Z</time>
      </trkpt>
      <trkpt lat="43.95169" lon="5.185">
        <ele>615.38</ele>
        <time>2017-09-11T09:25:19Z</time>
      </trkpt>
      <trkpt lat="43.95159" lon="5.18525">
        <ele>615.38</ele>
        <time>2017-09-11T09:25:39Z</time>
      </trkpt>
      <trkpt lat="43.95155" lon="5.18554">
        <ele>614.9</ele>
        <time>2017-09-11T09:26:00Z</time>
      </trkpt>
      <trkpt lat="43.9515" lon="5.1858">
        <ele>613.46</ele>
        <time>2017-09-11T09:26:19Z</time>
      </trkpt>
      <trkpt lat="43.95139" lon="5.18606">
        <ele>612.5</ele>
        <time>2017-09-11T09:26:40Z</time>
      </trkpt>
      <trkpt lat="43.95128" lon="5.18628">
        <ele>610.57</ele>
        <time>2017-09-11T09:26:59Z</time>
      </trkpt>
      <trkpt lat="43.95117" lon="5.18655">
        <ele>609.61</ele>
        <time>2017-09-11T09:27:20Z</time>
      </trkpt>
      <trkpt lat="43.95107" lon="5.18678">
        <ele>608.65</ele>
        <time>2017-09-11T09:27:40Z</time>
      </trkpt>
      <trkpt lat="43.95096" lon="5.18702">
        <ele>607.21</ele>
        <time>2017-09-11T09:27:59Z</time>
      </trkpt>
      <trkpt lat="43.95086" lon="5.18727">
        <ele>607.21</ele>
        <time>2017-09-11T09:28:17Z</time>
      </trkpt>
      <trkpt lat="43.95076" lon="5.18753">
        <ele>606.73</ele>
        <time>2017-09-11T09:28:36Z</time>
      </trkpt>
      <trkpt lat="43.95071" lon="5.18787">
        <ele>606.73</ele>
        <time>2017-09-11T09:28:59Z</time>
      </trkpt>
      <trkpt lat="43.9507" lon="5.18797">
        <ele>606.73</ele>
        <time>2017-09-11T09:29:06Z</time>
      </trkpt>
      <trkpt lat="43.95068" lon="5.18801">
        <ele>606.73</ele>
        <time>2017-09-11T09:29:09Z</time>
      </trkpt>
      <trkpt lat="43.95061" lon="5.18826">
        <ele>606.73</ele>
        <time>2017-09-11T09:29:28Z</time>
      </trkpt>
      <trkpt lat="43.95057" lon="5.18839">
        <ele>606.73</ele>
        <time>2017-09-11T09:29:37Z</time>
      </trkpt>
      <trkpt lat="43.95048" lon="5.18869">
        <ele>606.25</ele>
        <time>2017-09-11T09:29:59Z</time>
      </trkpt>
      <trkpt lat="43.9504" lon="5.189">
        <ele>605.29</ele>
        <time>2017-09-11T09:30:19Z</time>
      </trkpt>
      <trkpt lat="43.95038" lon="5.18931">
        <ele>604.81</ele>
        <time>2017-09-11T09:30:39Z</time>
      </trkpt>
      <trkpt lat="43.95035" lon="5.18964">
        <ele>603.36</ele>
        <time>2017-09-11T09:31:00Z</time>
      </trkpt>
      <trkpt lat="43.95025" lon="5.18992">
        <ele>604.81</ele>
        <time>2017-09-11T09:31:20Z</time>
      </trkpt>
      <trkpt lat="43.95019" lon="5.19016">
        <ele>604.81</ele>
        <time>2017-09-11T09:31:37Z</time>
      </trkpt>
      <trkpt lat="43.9502" lon="5.19044">
        <ele>604.81</ele>
        <time>2017-09-11T09:31:56Z</time>
      </trkpt>
      <trkpt lat="43.95021" lon="5.19045">
        <ele>604.81</ele>
        <time>2017-09-11T09:31:57Z</time>
      </trkpt>
      <trkpt lat="43.95034" lon="5.19074">
        <ele>602.88</ele>
        <time>2017-09-11T09:32:19Z</time>
      </trkpt>
      <trkpt lat="43.95036" lon="5.19082">
        <ele>602.4</ele>
        <time>2017-09-11T09:32:25Z</time>
      </trkpt>
      <trkpt lat="43.95037" lon="5.19091">
        <ele>602.4</ele>
        <time>2017-09-11T09:32:32Z</time>
      </trkpt>
      <trkpt lat="43.9503" lon="5.19118">
        <ele>601.92</ele>
        <time>2017-09-11T09:32:53Z</time>
      </trkpt>
      <trkpt lat="43.9502" lon="5.19136">
        <ele>600.48</ele>
        <time>2017-09-11T09:33:09Z</time>
      </trkpt>
      <trkpt lat="43.95006" lon="5.19158">
        <ele>598.56</ele>
        <time>2017-09-11T09:33:30Z</time>
      </trkpt>
      <trkpt lat="43.94994" lon="5.19178">
        <ele>597.12</ele>
        <time>2017-09-11T09:33:47Z</time>
      </trkpt>
      <trkpt lat="43.94985" lon="5.19194">
        <ele>597.12</ele>
        <time>2017-09-11T09:34:03Z</time>
      </trkpt>
      <trkpt lat="43.94975" lon="5.19214">
        <ele>595.67</ele>
        <time>2017-09-11T09:34:21Z</time>
      </trkpt>
      <trkpt lat="43.94965" lon="5.19235">
        <ele>594.71</ele>
        <time>2017-09-11T09:34:40Z</time>
      </trkpt>
      <trkpt lat="43.94959" lon="5.19251">
        <ele>593.75</ele>
        <time>2017-09-11T09:34:58Z</time>
      </trkpt>
      <trkpt lat="43.9496" lon="5.19252">
        <ele>593.75</ele>
        <time>2017-09-11T09:35:27Z</time>
      </trkpt>
      <trkpt lat="43.94958" lon="5.19259">
        <ele>594.23</ele>
        <time>2017-09-11T09:35:45Z</time>
      </trkpt>
      <trkpt lat="43.94962" lon="5.19278">
        <ele>593.27</ele>
        <time>2017-09-11T09:36:02Z</time>
      </trkpt>
      <trkpt lat="43.94965" lon="5.19308">
        <ele>592.79</ele>
        <time>2017-09-11T09:36:23Z</time>
      </trkpt>
      <trkpt lat="43.94966" lon="5.19312">
        <ele>592.79</ele>
        <time>2017-09-11T09:36:26Z</time>
      </trkpt>
      <trkpt lat="43.94963" lon="5.19337">
        <ele>591.83</ele>
        <time>2017-09-11T09:36:44Z</time>
      </trkpt>
      <trkpt lat="43.94959" lon="5.19357">
        <ele>591.83</ele>
        <time>2017-09-11T09:37:00Z</time>
      </trkpt>
      <trkpt lat="43.94953" lon="5.19379">
        <ele>589.43</ele>
        <time>2017-09-11T09:37:19Z</time>
      </trkpt>
      <trkpt lat="43.94955" lon="5.19398">
        <ele>587.98</ele>
        <time>2017-09-11T09:37:34Z</time>
      </trkpt>
      <trkpt lat="43.94969" lon="5.19425">
        <ele>587.02</ele>
        <time>2017-09-11T09:37:57Z</time>
      </trkpt>
      <trkpt lat="43.94971" lon="5.19427">
        <ele>587.02</ele>
        <time>2017-09-11T09:37:59Z</time>
      </trkpt>
      <trkpt lat="43.94991" lon="5.19444">
        <ele>586.54</ele>
        <time>2017-09-11T09:38:22Z</time>
      </trkpt>
      <trkpt lat="43.94993" lon="5.19446">
        <ele>585.58</ele>
        <time>2017-09-11T09:38:24Z</time>
      </trkpt>
      <trkpt lat="43.95002" lon="5.19462">
        <ele>584.62</ele>
        <time>2017-09-11T09:38:40Z</time>
      </trkpt>
      <trkpt lat="43.95013" lon="5.19474">
        <ele>582.7</ele>
        <time>2017-09-11T09:38:55Z</time>
      </trkpt>
      <trkpt lat="43.95018" lon="5.19489">
        <ele>580.77</ele>
        <time>2017-09-11T09:39:11Z</time>
      </trkpt>
      <trkpt lat="43.95022" lon="5.19505">
        <ele>579.33</ele>
        <time>2017-09-11T09:39:25Z</time>
      </trkpt>
      <trkpt lat="43.95028" lon="5.19523">
        <ele>577.89</ele>
        <time>2017-09-11T09:39:41Z</time>
      </trkpt>
      <trkpt lat="43.95034" lon="5.19541">
        <ele>575.97</ele>
        <time>2017-09-11T09:39:58Z</time>
      </trkpt>
      <trkpt lat="43.95031" lon="5.1956">
        <ele>575.01</ele>
        <time>2017-09-11T09:40:15Z</time>
      </trkpt>
      <trkpt lat="43.95028" lon="5.19581">
        <ele>574.53</ele>
        <time>2017-09-11T09:40:32Z</time>
      </trkpt>
      <trkpt lat="43.95028" lon="5.19604">
        <ele>574.04</ele>
        <time>2017-09-11T09:40:49Z</time>
      </trkpt>
      <trkpt lat="43.95025" lon="5.19621">
        <ele>573.08</ele>
        <time>2017-09-11T09:41:02Z</time>
      </trkpt>
      <trkpt lat="43.95026" lon="5.19628">
        <ele>574.53</ele>
        <time>2017-09-11T09:41:07Z</time>
      </trkpt>
      <trkpt lat="43.95025" lon="5.19627">
        <ele>573.56</ele>
        <time>2017-09-11T09:41:17Z</time>
      </trkpt>
      <trkpt lat="43.95033" lon="5.19644">
        <ele>573.56</ele>
        <time>2017-09-11T09:41:34Z</time>
      </trkpt>
      <trkpt lat="43.95034" lon="5.1967">
        <ele>575.01</ele>
        <time>2017-09-11T09:41:53Z</time>
      </trkpt>
      <trkpt lat="43.95029" lon="5.19665">
        <ele>575.01</ele>
        <time>2017-09-11T09:42:04Z</time>
      </trkpt>
      <trkpt lat="43.95014" lon="5.19657">
        <ele>575.01</ele>
        <time>2017-09-11T09:42:22Z</time>
      </trkpt>
      <trkpt lat="43.95014" lon="5.19656">
        <ele>574.04</ele>
        <time>2017-09-11T09:42:32Z</time>
      </trkpt>
      <trkpt lat="43.95014" lon="5.19656">
        <ele>575.49</ele>
        <time>2017-09-11T09:42:35Z</time>
      </trkpt>
      <trkpt lat="43.95017" lon="5.19658">
        <ele>575.01</ele>
        <time>2017-09-11T09:42:47Z</time>
      </trkpt>
      <trkpt lat="43.9502" lon="5.19658">
        <ele>567.8</ele>
        <time>2017-09-11T09:43:00Z</time>
      </trkpt>
      <trkpt lat="43.9502" lon="5.19658">
        <ele>576.45</ele>
        <time>2017-09-11T09:43:01Z</time>
      </trkpt>
      <trkpt lat="43.95018" lon="5.1966">
        <ele>574.04</ele>
        <time>2017-09-11T09:43:23Z</time>
      </trkpt>
      <trkpt lat="43.95016" lon="5.19657">
        <ele>575.49</ele>
        <time>2017-09-11T09:44:09Z</time>
      </trkpt>
      <trkpt lat="43.95015" lon="5.19654">
        <ele>574.53</ele>
        <time>2017-09-11T09:44:40Z</time>
      </trkpt>
      <trkpt lat="43.95016" lon="5.19659">
        <ele>574.53</ele>
        <time>2017-09-11T09:45:15Z</time>
      </trkpt>
      <trkpt lat="43.95017" lon="5.19658">
        <ele>574.53</ele>
        <time>2017-09-11T09:45:59Z</time>
      </trkpt>
      <trkpt lat="43.95015" lon="5.19657">
        <ele>574.53</ele>
        <time>2017-09-11T09:46:49Z</time>
      </trkpt>
      <trkpt lat="43.95015" lon="5.19656">
        <ele>575.97</ele>
        <time>2017-09-11T09:47:12Z</time>
      </trkpt>
      <trkpt lat="43.95016" lon="5.19658">
        <ele>576.45</ele>
        <time>2017-09-11T09:48:00Z</time>
      </trkpt>
      <trkpt lat="43.95016" lon="5.19658">
        <ele>576.45</ele>
        <time>2017-09-11T09:48:30Z</time>
      </trkpt>
      <trkpt lat="43.95016" lon="5.19657">
        <ele>576.45</ele>
        <time>2017-09-11T09:49:13Z</time>
      </trkpt>
      <trkpt lat="43.95016" lon="5.1966">
        <ele>576.93</ele>
        <time>2017-09-11T09:49:52Z</time>
      </trkpt>
      <trkpt lat="43.95016" lon="5.19656">
        <ele>576.93</ele>
        <time>2017-09-11T09:50:50Z</time>
      </trkpt>
      <trkpt lat="43.95016" lon="5.19658">
        <ele>576.93</ele>
        <time>2017-09-11T09:51:26Z</time>
      </trkpt>
      <trkpt lat="43.95017" lon="5.1966">
        <ele>576.93</ele>
        <time>2017-09-11T09:52:00Z</time>
      </trkpt>
      <trkpt lat="43.95017" lon="5.19659">
        <ele>577.41</ele>
        <time>2017-09-11T09:52:28Z</time>
      </trkpt>
      <trkpt lat="43.95016" lon="5.19658">
        <ele>577.41</ele>
        <time>2017-09-11T09:53:02Z</time>
      </trkpt>
      <trkpt lat="43.95016" lon="5.19658">
        <ele>577.41</ele>
        <time>2017-09-11T09:53:30Z</time>
      </trkpt>
      <trkpt lat="43.95015" lon="5.19656">
        <ele>577.41</ele>
        <time>2017-09-11T09:54:06Z</time>
      </trkpt>
      <trkpt lat="43.95015" lon="5.19657">
        <ele>577.41</ele>
        <time>2017-09-11T09:54:36Z</time>
      </trkpt>
      <trkpt lat="43.95015" lon="5.19656">
        <ele>575.97</ele>
        <time>2017-09-11T09:55:23Z</time>
      </trkpt>
      <trkpt lat="43.95016" lon="5.19659">
        <ele>575.97</ele>
        <time>2017-09-11T09:56:12Z</time>
      </trkpt>
      <trkpt lat="43.95017" lon="5.19658">
        <ele>577.41</ele>
        <time>2017-09-11T09:56:19Z</time>
      </trkpt>
      <trkpt lat="43.95016" lon="5.19658">
        <ele>576.45</ele>
        <time>2017-09-11T09:56:43Z</time>
      </trkpt>
      <trkpt lat="43.95015" lon="5.19656">
        <ele>576.45</ele>
        <time>2017-09-11T09:57:24Z</time>
      </trkpt>
      <trkpt lat="43.95015" lon="5.19656">
        <ele>576.45</ele>
        <time>2017-09-11T09:58:07Z</time>
      </trkpt>
      <trkpt lat="43.95014" lon="5.19655">
        <ele>576.45</ele>
        <time>2017-09-11T09:58:47Z</time>
      </trkpt>
      <trkpt lat="43.95014" lon="5.19654">
        <ele>576.93</ele>
        <time>2017-09-11T09:59:28Z</time>
      </trkpt>
      <trkpt lat="43.95014" lon="5.19655">
        <ele>577.41</ele>
        <time>2017-09-11T09:59:54Z</time>
      </trkpt>
      <trkpt lat="43.95016" lon="5.19657">
        <ele>577.89</ele>
        <time>2017-09-11T10:00:22Z</time>
      </trkpt>
      <trkpt lat="43.95016" lon="5.19657">
        <ele>576.45</ele>
        <time>2017-09-11T10:00:27Z</time>
      </trkpt>
      <trkpt lat="43.95016" lon="5.19658">
        <ele>576.93</ele>
        <time>2017-09-11T10:01:10Z</time>
      </trkpt>
      <trkpt lat="43.95016" lon="5.1966">
        <ele>576.93</ele>
        <time>2017-09-11T10:01:48Z</time>
      </trkpt>
      <trkpt lat="43.95016" lon="5.19661">
        <ele>576.93</ele>
        <time>2017-09-11T10:02:16Z</time>
      </trkpt>
      <trkpt lat="43.95016" lon="5.19659">
        <ele>578.37</ele>
        <time>2017-09-11T10:02:42Z</time>
      </trkpt>
      <trkpt lat="43.95016" lon="5.19658">
        <ele>578.37</ele>
        <time>2017-09-11T10:03:03Z</time>
      </trkpt>
      <trkpt lat="43.95015" lon="5.19655">
        <ele>578.37</ele>
        <time>2017-09-11T10:03:34Z</time>
      </trkpt>
      <trkpt lat="43.95015" lon="5.19657">
        <ele>578.37</ele>
        <time>2017-09-11T10:04:00Z</time>
      </trkpt>
      <trkpt lat="43.95016" lon="5.19658">
        <ele>578.37</ele>
        <time>2017-09-11T10:04:37Z</time>
      </trkpt>
      <trkpt lat="43.95016" lon="5.19658">
        <ele>578.37</ele>
        <time>2017-09-11T10:05:11Z</time>
      </trkpt>
      <trkpt lat="43.95016" lon="5.19659">
        <ele>576.93</ele>
        <time>2017-09-11T10:05:30Z</time>
      </trkpt>
      <trkpt lat="43.95017" lon="5.19658">
        <ele>578.37</ele>
        <time>2017-09-11T10:05:45Z</time>
      </trkpt>
      <trkpt lat="43.95015" lon="5.19657">
        <ele>578.37</ele>
        <time>2017-09-11T10:06:23Z</time>
      </trkpt>
      <trkpt lat="43.95014" lon="5.19655">
        <ele>578.37</ele>
        <time>2017-09-11T10:06:51Z</time>
      </trkpt>
      <trkpt lat="43.95014" lon="5.19655">
        <ele>576.93</ele>
        <time>2017-09-11T10:06:54Z</time>
      </trkpt>
      <trkpt lat="43.95014" lon="5.19655">
        <ele>578.37</ele>
        <time>2017-09-11T10:06:57Z</time>
      </trkpt>
      <trkpt lat="43.95015" lon="5.19655">
        <ele>577.41</ele>
        <time>2017-09-11T10:07:01Z</time>
      </trkpt>
      <trkpt lat="43.95018" lon="5.19657">
        <ele>577.41</ele>
        <time>2017-09-11T10:07:22Z</time>
      </trkpt>
      <trkpt lat="43.95018" lon="5.19658">
        <ele>577.41</ele>
        <time>2017-09-11T10:07:48Z</time>
      </trkpt>
      <trkpt lat="43.95018" lon="5.19658">
        <ele>578.37</ele>
        <time>2017-09-11T10:08:12Z</time>
      </trkpt>
      <trkpt lat="43.95018" lon="5.19656">
        <ele>578.37</ele>
        <time>2017-09-11T10:08:46Z</time>
      </trkpt>
      <trkpt lat="43.95015" lon="5.19655">
        <ele>576.93</ele>
        <time>2017-09-11T10:09:09Z</time>
      </trkpt>
      <trkpt lat="43.95016" lon="5.19658">
        <ele>576.93</ele>
        <time>2017-09-11T10:09:39Z</time>
      </trkpt>
      <trkpt lat="43.95016" lon="5.1966">
        <ele>577.89</ele>
        <time>2017-09-11T10:10:07Z</time>
      </trkpt>
      <trkpt lat="43.95016" lon="5.19658">
        <ele>577.89</ele>
        <time>2017-09-11T10:10:34Z</time>
      </trkpt>
      <trkpt lat="43.95015" lon="5.19656">
        <ele>577.89</ele>
        <time>2017-09-11T10:11:05Z</time>
      </trkpt>
      <trkpt lat="43.95016" lon="5.19656">
        <ele>577.89</ele>
        <time>2017-09-11T10:11:31Z</time>
      </trkpt>
      <trkpt lat="43.95017" lon="5.19657">
        <ele>575.49</ele>
        <time>2017-09-11T10:12:06Z</time>
      </trkpt>
      <trkpt lat="43.95017" lon="5.19656">
        <ele>576.93</ele>
        <time>2017-09-11T10:12:09Z</time>
      </trkpt>
      <trkpt lat="43.95018" lon="5.19655">
        <ele>576.93</ele>
        <time>2017-09-11T10:12:34Z</time>
      </trkpt>
      <trkpt lat="43.95017" lon="5.19657">
        <ele>576.93</ele>
        <time>2017-09-11T10:12:57Z</time>
      </trkpt>
      <trkpt lat="43.95017" lon="5.19658">
        <ele>576.93</ele>
        <time>2017-09-11T10:13:28Z</time>
      </trkpt>
      <trkpt lat="43.95016" lon="5.19659">
        <ele>576.45</ele>
        <time>2017-09-11T10:13:57Z</time>
      </trkpt>
      <trkpt lat="43.95017" lon="5.19659">
        <ele>576.45</ele>
        <time>2017-09-11T10:14:18Z</time>
      </trkpt>
      <trkpt lat="43.95017" lon="5.1966">
        <ele>576.45</ele>
        <time>2017-09-11T10:14:49Z</time>
      </trkpt>
      <trkpt lat="43.95017" lon="5.19663">
        <ele>575.01</ele>
        <time>2017-09-11T10:15:16Z</time>
      </trkpt>
      <trkpt lat="43.95018" lon="5.19661">
        <ele>575.49</ele>
        <time>2017-09-11T10:15:44Z</time>
      </trkpt>
      <trkpt lat="43.95018" lon="5.19661">
        <ele>575.49</ele>
        <time>2017-09-11T10:16:02Z</time>
      </trkpt>
      <trkpt lat="43.95019" lon="5.19662">
        <ele>575.01</ele>
        <time>2017-09-11T10:16:32Z</time>
      </trkpt>
      <trkpt lat="43.95018" lon="5.1966">
        <ele>574.53</ele>
        <time>2017-09-11T10:16:53Z</time>
      </trkpt>
      <trkpt lat="43.95018" lon="5.19661">
        <ele>575.97</ele>
        <time>2017-09-11T10:17:00Z</time>
      </trkpt>
      <trkpt lat="43.95018" lon="5.19659">
        <ele>575.97</ele>
        <time>2017-09-11T10:17:24Z</time>
      </trkpt>
      <trkpt lat="43.95018" lon="5.19658">
        <ele>574.53</ele>
        <time>2017-09-11T10:17:42Z</time>
      </trkpt>
      <trkpt lat="43.95019" lon="5.1966">
        <ele>574.53</ele>
        <time>2017-09-11T10:18:04Z</time>
      </trkpt>
      <trkpt lat="43.95019" lon="5.19661">
        <ele>575.97</ele>
        <time>2017-09-11T10:18:13Z</time>
      </trkpt>
      <trkpt lat="43.95019" lon="5.19661">
        <ele>575.49</ele>
        <time>2017-09-11T10:18:45Z</time>
      </trkpt>
      <trkpt lat="43.95019" lon="5.19658">
        <ele>574.53</ele>
        <time>2017-09-11T10:19:05Z</time>
      </trkpt>
      <trkpt lat="43.95019" lon="5.19658">
        <ele>575.97</ele>
        <time>2017-09-11T10:19:15Z</time>
      </trkpt>
      <trkpt lat="43.95019" lon="5.19656">
        <ele>574.53</ele>
        <time>2017-09-11T10:19:45Z</time>
      </trkpt>
      <trkpt lat="43.95018" lon="5.19662">
        <ele>574.53</ele>
        <time>2017-09-11T10:20:20Z</time>
      </trkpt>
      <trkpt lat="43.95019" lon="5.19662">
        <ele>575.49</ele>
        <time>2017-09-11T10:20:49Z</time>
      </trkpt>
      <trkpt lat="43.95018" lon="5.19661">
        <ele>575.49</ele>
        <time>2017-09-11T10:21:20Z</time>
      </trkpt>
      <trkpt lat="43.95018" lon="5.1966">
        <ele>575.01</ele>
        <time>2017-09-11T10:21:28Z</time>
      </trkpt>
      <trkpt lat="43.95018" lon="5.19659">
        <ele>575.01</ele>
        <time>2017-09-11T10:21:59Z</time>
      </trkpt>
      <trkpt lat="43.95018" lon="5.19657">
        <ele>575.01</ele>
        <time>2017-09-11T10:22:29Z</time>
      </trkpt>
      <trkpt lat="43.95018" lon="5.19661">
        <ele>574.53</ele>
        <time>2017-09-11T10:23:06Z</time>
      </trkpt>
      <trkpt lat="43.95017" lon="5.19661">
        <ele>574.53</ele>
        <time>2017-09-11T10:23:32Z</time>
      </trkpt>
      <trkpt lat="43.95017" lon="5.19657">
        <ele>574.53</ele>
        <time>2017-09-11T10:24:08Z</time>
      </trkpt>
      <trkpt lat="43.95017" lon="5.19657">
        <ele>574.53</ele>
        <time>2017-09-11T10:24:31Z</time>
      </trkpt>
      <trkpt lat="43.95017" lon="5.19656">
        <ele>575.49</ele>
        <time>2017-09-11T10:24:37Z</time>
      </trkpt>
      <trkpt lat="43.95018" lon="5.19657">
        <ele>575.49</ele>
        <time>2017-09-11T10:25:08Z</time>
      </trkpt>
      <trkpt lat="43.95018" lon="5.19658">
        <ele>575.49</ele>
        <time>2017-09-11T10:25:29Z</time>
      </trkpt>
      <trkpt lat="43.95018" lon="5.19658">
        <ele>574.04</ele>
        <time>2017-09-11T10:25:57Z</time>
      </trkpt>
      <trkpt lat="43.95018" lon="5.1966">
        <ele>574.53</ele>
        <time>2017-09-11T10:26:33Z</time>
      </trkpt>
      <trkpt lat="43.95017" lon="5.1966">
        <ele>574.53</ele>
        <time>2017-09-11T10:27:06Z</time>
      </trkpt>
      <trkpt lat="43.95017" lon="5.1966">
        <ele>574.53</ele>
        <time>2017-09-11T10:27:32Z</time>
      </trkpt>
      <trkpt lat="43.95016" lon="5.19662">
        <ele>574.53</ele>
        <time>2017-09-11T10:28:06Z</time>
      </trkpt>
      <trkpt lat="43.95016" lon="5.19662">
        <ele>574.53</ele>
        <time>2017-09-11T10:28:44Z</time>
      </trkpt>
      <trkpt lat="43.95018" lon="5.19663">
        <ele>573.56</ele>
        <time>2017-09-11T10:29:11Z</time>
      </trkpt>
      <trkpt lat="43.95018" lon="5.19662">
        <ele>574.53</ele>
        <time>2017-09-11T10:29:35Z</time>
      </trkpt>
      <trkpt lat="43.9502" lon="5.19659">
        <ele>575.01</ele>
        <time>2017-09-11T10:30:00Z</time>
      </trkpt>
      <trkpt lat="43.95018" lon="5.1966">
        <ele>575.01</ele>
        <time>2017-09-11T10:30:30Z</time>
      </trkpt>
      <trkpt lat="43.95018" lon="5.19662">
        <ele>575.49</ele>
        <time>2017-09-11T10:30:58Z</time>
      </trkpt>
      <trkpt lat="43.95018" lon="5.19661">
        <ele>574.04</ele>
        <time>2017-09-11T10:31:25Z</time>
      </trkpt>
      <trkpt lat="43.95017" lon="5.19661">
        <ele>575.97</ele>
        <time>2017-09-11T10:32:06Z</time>
      </trkpt>
      <trkpt lat="43.95017" lon="5.19659">
        <ele>575.97</ele>
        <time>2017-09-11T10:32:18Z</time>
      </trkpt>
      <trkpt lat="43.95015" lon="5.19655">
        <ele>575.97</ele>
        <time>2017-09-11T10:32:42Z</time>
      </trkpt>
      <trkpt lat="43.95014" lon="5.19653">
        <ele>575.97</ele>
        <time>2017-09-11T10:33:11Z</time>
      </trkpt>
      <trkpt lat="43.95014" lon="5.19651">
        <ele>576.45</ele>
        <time>2017-09-11T10:33:51Z</time>
      </trkpt>
      <trkpt lat="43.95013" lon="5.19653">
        <ele>576.45</ele>
        <time>2017-09-11T10:34:18Z</time>
      </trkpt>
      <trkpt lat="43.95014" lon="5.19657">
        <ele>575.97</ele>
        <time>2017-09-11T10:34:54Z</time>
      </trkpt>
      <trkpt lat="43.95015" lon="5.19657">
        <ele>575.97</ele>
        <time>2017-09-11T10:35:16Z</time>
      </trkpt>
      <trkpt lat="43.95015" lon="5.19657">
        <ele>575.49</ele>
        <time>2017-09-11T10:35:31Z</time>
      </trkpt>
      <trkpt lat="43.95016" lon="5.19658">
        <ele>576.45</ele>
        <time>2017-09-11T10:35:39Z</time>
      </trkpt>
      <trkpt lat="43.95016" lon="5.19661">
        <ele>578.37</ele>
        <time>2017-09-11T10:35:41Z</time>
      </trkpt>
      <trkpt lat="43.95025" lon="5.19671">
        <ele>576.45</ele>
        <time>2017-09-11T10:35:55Z</time>
      </trkpt>
      <trkpt lat="43.95034" lon="5.19672">
        <ele>575.97</ele>
        <time>2017-09-11T10:36:10Z</time>
      </trkpt>
      <trkpt lat="43.95039" lon="5.19694">
        <ele>577.41</ele>
        <time>2017-09-11T10:36:29Z</time>
      </trkpt>
      <trkpt lat="43.95039" lon="5.19712">
        <ele>577.89</ele>
        <time>2017-09-11T10:36:46Z</time>
      </trkpt>
      <trkpt lat="43.95042" lon="5.19731">
        <ele>579.81</ele>
        <time>2017-09-11T10:37:03Z</time>
      </trkpt>
      <trkpt lat="43.95049" lon="5.19752">
        <ele>581.25</ele>
        <time>2017-09-11T10:37:22Z</time>
      </trkpt>
      <trkpt lat="43.95057" lon="5.19769">
        <ele>582.22</ele>
        <time>2017-09-11T10:37:38Z</time>
      </trkpt>
      <trkpt lat="43.9506" lon="5.19787">
        <ele>583.18</ele>
        <time>2017-09-11T10:37:53Z</time>
      </trkpt>
      <trkpt lat="43.95061" lon="5.19796">
        <ele>583.66</ele>
        <time>2017-09-11T10:38:00Z</time>
      </trkpt>
      <trkpt lat="43.95066" lon="5.1982">
        <ele>584.14</ele>
        <time>2017-09-11T10:38:19Z</time>
      </trkpt>
      <trkpt lat="43.95069" lon="5.19833">
        <ele>585.58</ele>
        <time>2017-09-11T10:38:30Z</time>
      </trkpt>
      <trkpt lat="43.95074" lon="5.19853">
        <ele>585.1</ele>
        <time>2017-09-11T10:38:45Z</time>
      </trkpt>
      <trkpt lat="43.95074" lon="5.19854">
        <ele>585.1</ele>
        <time>2017-09-11T10:38:46Z</time>
      </trkpt>
      <trkpt lat="43.9508" lon="5.19877">
        <ele>585.58</ele>
        <time>2017-09-11T10:39:04Z</time>
      </trkpt>
      <trkpt lat="43.9509" lon="5.19896">
        <ele>586.54</ele>
        <time>2017-09-11T10:39:21Z</time>
      </trkpt>
      <trkpt lat="43.95102" lon="5.19917">
        <ele>587.02</ele>
        <time>2017-09-11T10:39:41Z</time>
      </trkpt>
      <trkpt lat="43.95107" lon="5.19937">
        <ele>587.5</ele>
        <time>2017-09-11T10:39:58Z</time>
      </trkpt>
      <trkpt lat="43.95111" lon="5.1996">
        <ele>587.5</ele>
        <time>2017-09-11T10:40:16Z</time>
      </trkpt>
      <trkpt lat="43.95112" lon="5.19965">
        <ele>586.06</ele>
        <time>2017-09-11T10:40:20Z</time>
      </trkpt>
      <trkpt lat="43.95115" lon="5.1999">
        <ele>585.58</ele>
        <time>2017-09-11T10:40:40Z</time>
      </trkpt>
      <trkpt lat="43.95122" lon="5.20013">
        <ele>584.14</ele>
        <time>2017-09-11T10:41:00Z</time>
      </trkpt>
      <trkpt lat="43.95129" lon="5.20034">
        <ele>583.18</ele>
        <time>2017-09-11T10:41:19Z</time>
      </trkpt>
      <trkpt lat="43.95137" lon="5.20054">
        <ele>582.7</ele>
        <time>2017-09-11T10:41:39Z</time>
      </trkpt>
      <trkpt lat="43.95142" lon="5.20071">
        <ele>580.77</ele>
        <time>2017-09-11T10:41:56Z</time>
      </trkpt>
      <trkpt lat="43.95143" lon="5.20072">
        <ele>585.1</ele>
        <time>2017-09-11T10:41:57Z</time>
      </trkpt>
      <trkpt lat="43.9515" lon="5.20094">
        <ele>582.7</ele>
        <time>2017-09-11T10:42:13Z</time>
      </trkpt>
      <trkpt lat="43.95156" lon="5.20116">
        <ele>582.22</ele>
        <time>2017-09-11T10:42:30Z</time>
      </trkpt>
      <trkpt lat="43.95158" lon="5.20126">
        <ele>583.18</ele>
        <time>2017-09-11T10:42:38Z</time>
      </trkpt>
      <trkpt lat="43.95165" lon="5.20154">
        <ele>583.18</ele>
        <time>2017-09-11T10:42:57Z</time>
      </trkpt>
      <trkpt lat="43.9517" lon="5.20173">
        <ele>582.7</ele>
        <time>2017-09-11T10:43:13Z</time>
      </trkpt>
      <trkpt lat="43.95172" lon="5.20186">
        <ele>579.81</ele>
        <time>2017-09-11T10:43:29Z</time>
      </trkpt>
      <trkpt lat="43.95172" lon="5.20186">
        <ele>584.14</ele>
        <time>2017-09-11T10:43:30Z</time>
      </trkpt>
      <trkpt lat="43.95171" lon="5.20191">
        <ele>581.25</ele>
        <time>2017-09-11T10:43:46Z</time>
      </trkpt>
      <trkpt lat="43.95171" lon="5.20191">
        <ele>581.73</ele>
        <time>2017-09-11T10:44:03Z</time>
      </trkpt>
      <trkpt lat="43.95172" lon="5.20192">
        <ele>578.37</ele>
        <time>2017-09-11T10:44:08Z</time>
      </trkpt>
      <trkpt lat="43.95172" lon="5.20192">
        <ele>582.7</ele>
        <time>2017-09-11T10:44:09Z</time>
      </trkpt>
      <trkpt lat="43.95172" lon="5.20191">
        <ele>582.7</ele>
        <time>2017-09-11T10:44:10Z</time>
      </trkpt>
      <trkpt lat="43.95172" lon="5.20191">
        <ele>578.37</ele>
        <time>2017-09-11T10:44:11Z</time>
      </trkpt>
      <trkpt lat="43.95172" lon="5.20191">
        <ele>585.1</ele>
        <time>2017-09-11T10:44:12Z</time>
      </trkpt>
      <trkpt lat="43.95172" lon="5.20191">
        <ele>580.77</ele>
        <time>2017-09-11T10:44:13Z</time>
      </trkpt>
      <trkpt lat="43.95174" lon="5.20191">
        <ele>582.7</ele>
        <time>2017-09-11T10:44:37Z</time>
      </trkpt>
      <trkpt lat="43.95173" lon="5.20191">
        <ele>580.77</ele>
        <time>2017-09-11T10:45:01Z</time>
      </trkpt>
      <trkpt lat="43.95172" lon="5.20192">
        <ele>582.22</ele>
        <time>2017-09-11T10:45:17Z</time>
      </trkpt>
      <trkpt lat="43.95175" lon="5.20197">
        <ele>581.25</ele>
        <time>2017-09-11T10:45:36Z</time>
      </trkpt>
      <trkpt lat="43.95178" lon="5.20216">
        <ele>581.25</ele>
        <time>2017-09-11T10:45:50Z</time>
      </trkpt>
      <trkpt lat="43.95186" lon="5.20239">
        <ele>581.25</ele>
        <time>2017-09-11T10:46:07Z</time>
      </trkpt>
      <trkpt lat="43.9519" lon="5.20256">
        <ele>580.77</ele>
        <time>2017-09-11T10:46:22Z</time>
      </trkpt>
      <trkpt lat="43.95196" lon="5.20273">
        <ele>579.81</ele>
        <time>2017-09-11T10:46:38Z</time>
      </trkpt>
      <trkpt lat="43.952" lon="5.20292">
        <ele>578.37</ele>
        <time>2017-09-11T10:46:53Z</time>
      </trkpt>
      <trkpt lat="43.95206" lon="5.20314">
        <ele>577.89</ele>
        <time>2017-09-11T10:47:09Z</time>
      </trkpt>
      <trkpt lat="43.95213" lon="5.20326">
        <ele>576.45</ele>
        <time>2017-09-11T10:47:20Z</time>
      </trkpt>
      <trkpt lat="43.95225" lon="5.20345">
        <ele>575.49</ele>
        <time>2017-09-11T10:47:37Z</time>
      </trkpt>
      <trkpt lat="43.95233" lon="5.20354">
        <ele>574.53</ele>
        <time>2017-09-11T10:47:47Z</time>
      </trkpt>
      <trkpt lat="43.95244" lon="5.20366">
        <ele>574.04</ele>
        <time>2017-09-11T10:48:04Z</time>
      </trkpt>
      <trkpt lat="43.95253" lon="5.20377">
        <ele>572.6</ele>
        <time>2017-09-11T10:48:19Z</time>
      </trkpt>
      <trkpt lat="43.9526" lon="5.20385">
        <ele>571.64</ele>
        <time>2017-09-11T10:48:31Z</time>
      </trkpt>
      <trkpt lat="43.9527" lon="5.20399">
        <ele>570.68</ele>
        <time>2017-09-11T10:48:48Z</time>
      </trkpt>
      <trkpt lat="43.95275" lon="5.20412">
        <ele>568.76</ele>
        <time>2017-09-11T10:49:02Z</time>
      </trkpt>
      <trkpt lat="43.95279" lon="5.20432">
        <ele>567.32</ele>
        <time>2017-09-11T10:49:20Z</time>
      </trkpt>
      <trkpt lat="43.9528" lon="5.20435">
        <ele>567.32</ele>
        <time>2017-09-11T10:49:22Z</time>
      </trkpt>
      <trkpt lat="43.95287" lon="5.20453">
        <ele>567.32</ele>
        <time>2017-09-11T10:49:38Z</time>
      </trkpt>
      <trkpt lat="43.95297" lon="5.20474">
        <ele>566.35</ele>
        <time>2017-09-11T10:49:57Z</time>
      </trkpt>
      <trkpt lat="43.95301" lon="5.20481">
        <ele>566.35</ele>
        <time>2017-09-11T10:50:04Z</time>
      </trkpt>
      <trkpt lat="43.95303" lon="5.20482">
        <ele>566.35</ele>
        <time>2017-09-11T10:50:06Z</time>
      </trkpt>
      <trkpt lat="43.95311" lon="5.20492">
        <ele>565.39</ele>
        <time>2017-09-11T10:50:21Z</time>
      </trkpt>
      <trkpt lat="43.95315" lon="5.20496">
        <ele>564.91</ele>
        <time>2017-09-11T10:50:27Z</time>
      </trkpt>
      <trkpt lat="43.95326" lon="5.20507">
        <ele>563.47</ele>
        <time>2017-09-11T10:50:43Z</time>
      </trkpt>
      <trkpt lat="43.95341" lon="5.20519">
        <ele>562.51</ele>
        <time>2017-09-11T10:51:01Z</time>
      </trkpt>
      <trkpt lat="43.95351" lon="5.20526">
        <ele>562.51</ele>
        <time>2017-09-11T10:51:12Z</time>
      </trkpt>
      <trkpt lat="43.95365" lon="5.20537">
        <ele>562.03</ele>
        <time>2017-09-11T10:51:29Z</time>
      </trkpt>
      <trkpt lat="43.95377" lon="5.20548">
        <ele>563.95</ele>
        <time>2017-09-11T10:51:46Z</time>
      </trkpt>
      <trkpt lat="43.9539" lon="5.20562">
        <ele>564.43</ele>
        <time>2017-09-11T10:52:00Z</time>
      </trkpt>
      <trkpt lat="43.95399" lon="5.20575">
        <ele>566.35</ele>
        <time>2017-09-11T10:52:15Z</time>
      </trkpt>
      <trkpt lat="43.95407" lon="5.20588">
        <ele>566.35</ele>
        <time>2017-09-11T10:52:30Z</time>
      </trkpt>
      <trkpt lat="43.95417" lon="5.20606">
        <ele>567.8</ele>
        <time>2017-09-11T10:52:47Z</time>
      </trkpt>
      <trkpt lat="43.95423" lon="5.20611">
        <ele>566.83</ele>
        <time>2017-09-11T10:52:54Z</time>
      </trkpt>
      <trkpt lat="43.95426" lon="5.20613">
        <ele>568.76</ele>
        <time>2017-09-11T10:52:58Z</time>
      </trkpt>
      <trkpt lat="43.95438" lon="5.20623">
        <ele>569.72</ele>
        <time>2017-09-11T10:53:13Z</time>
      </trkpt>
      <trkpt lat="43.95451" lon="5.20633">
        <ele>571.16</ele>
        <time>2017-09-11T10:53:29Z</time>
      </trkpt>
      <trkpt lat="43.95471" lon="5.20646">
        <ele>572.6</ele>
        <time>2017-09-11T10:53:48Z</time>
      </trkpt>
      <trkpt lat="43.95484" lon="5.20656">
        <ele>574.04</ele>
        <time>2017-09-11T10:54:06Z</time>
      </trkpt>
      <trkpt lat="43.95498" lon="5.20666">
        <ele>575.01</ele>
        <time>2017-09-11T10:54:22Z</time>
      </trkpt>
      <trkpt lat="43.95513" lon="5.20671">
        <ele>576.45</ele>
        <time>2017-09-11T10:54:38Z</time>
      </trkpt>
      <trkpt lat="43.95522" lon="5.20677">
        <ele>574.53</ele>
        <time>2017-09-11T10:54:54Z</time>
      </trkpt>
      <trkpt lat="43.95522" lon="5.20676">
        <ele>574.53</ele>
        <time>2017-09-11T10:55:20Z</time>
      </trkpt>
      <trkpt lat="43.95522" lon="5.20676">
        <ele>575.49</ele>
        <time>2017-09-11T10:55:57Z</time>
      </trkpt>
      <trkpt lat="43.95521" lon="5.20678">
        <ele>575.01</ele>
        <time>2017-09-11T10:56:19Z</time>
      </trkpt>
      <trkpt lat="43.95531" lon="5.20681">
        <ele>575.01</ele>
        <time>2017-09-11T10:56:34Z</time>
      </trkpt>
      <trkpt lat="43.95552" lon="5.20689">
        <ele>575.01</ele>
        <time>2017-09-11T10:56:54Z</time>
      </trkpt>
      <trkpt lat="43.95568" lon="5.20693">
        <ele>576.45</ele>
        <time>2017-09-11T10:57:10Z</time>
      </trkpt>
      <trkpt lat="43.95585" lon="5.20693">
        <ele>576.45</ele>
        <time>2017-09-11T10:57:27Z</time>
      </trkpt>
      <trkpt lat="43.95606" lon="5.20695">
        <ele>576.45</ele>
        <time>2017-09-11T10:57:47Z</time>
      </trkpt>
      <trkpt lat="43.95622" lon="5.207">
        <ele>575.97</ele>
        <time>2017-09-11T10:58:02Z</time>
      </trkpt>
      <trkpt lat="43.95641" lon="5.20711">
        <ele>577.41</ele>
        <time>2017-09-11T10:58:20Z</time>
      </trkpt>
      <trkpt lat="43.95644" lon="5.20713">
        <ele>579.33</ele>
        <time>2017-09-11T10:58:23Z</time>
      </trkpt>
      <trkpt lat="43.95654" lon="5.20716">
        <ele>579.81</ele>
        <time>2017-09-11T10:58:33Z</time>
      </trkpt>
      <trkpt lat="43.95667" lon="5.20715">
        <ele>581.25</ele>
        <time>2017-09-11T10:58:48Z</time>
      </trkpt>
      <trkpt lat="43.95683" lon="5.20717">
        <ele>583.18</ele>
        <time>2017-09-11T10:59:05Z</time>
      </trkpt>
      <trkpt lat="43.957" lon="5.20717">
        <ele>584.62</ele>
        <time>2017-09-11T10:59:23Z</time>
      </trkpt>
      <trkpt lat="43.95717" lon="5.20718">
        <ele>586.54</ele>
        <time>2017-09-11T10:59:41Z</time>
      </trkpt>
      <trkpt lat="43.95737" lon="5.20715">
        <ele>587.5</ele>
        <time>2017-09-11T11:00:01Z</time>
      </trkpt>
      <trkpt lat="43.95746" lon="5.20711">
        <ele>589.91</ele>
        <time>2017-09-11T11:00:11Z</time>
      </trkpt>
      <trkpt lat="43.9575" lon="5.20709">
        <ele>588.46</ele>
        <time>2017-09-11T11:00:15Z</time>
      </trkpt>
      <trkpt lat="43.95757" lon="5.20704">
        <ele>589.91</ele>
        <time>2017-09-11T11:00:23Z</time>
      </trkpt>
      <trkpt lat="43.95778" lon="5.20687">
        <ele>590.87</ele>
        <time>2017-09-11T11:00:47Z</time>
      </trkpt>
      <trkpt lat="43.95795" lon="5.20673">
        <ele>592.31</ele>
        <time>2017-09-11T11:01:06Z</time>
      </trkpt>
      <trkpt lat="43.95811" lon="5.20661">
        <ele>592.79</ele>
        <time>2017-09-11T11:01:25Z</time>
      </trkpt>
      <trkpt lat="43.95821" lon="5.20657">
        <ele>591.83</ele>
        <time>2017-09-11T11:01:35Z</time>
      </trkpt>
      <trkpt lat="43.95834" lon="5.20652">
        <ele>592.79</ele>
        <time>2017-09-11T11:01:49Z</time>
      </trkpt>
      <trkpt lat="43.95837" lon="5.20651">
        <ele>590.87</ele>
        <time>2017-09-11T11:01:52Z</time>
      </trkpt>
      <trkpt lat="43.9584" lon="5.2065">
        <ele>592.31</ele>
        <time>2017-09-11T11:01:54Z</time>
      </trkpt>
      <trkpt lat="43.95859" lon="5.20646">
        <ele>592.31</ele>
        <time>2017-09-11T11:02:13Z</time>
      </trkpt>
      <trkpt lat="43.95864" lon="5.20645">
        <ele>591.35</ele>
        <time>2017-09-11T11:02:18Z</time>
      </trkpt>
      <trkpt lat="43.95869" lon="5.20645">
        <ele>592.79</ele>
        <time>2017-09-11T11:02:24Z</time>
      </trkpt>
      <trkpt lat="43.95871" lon="5.20646">
        <ele>592.79</ele>
        <time>2017-09-11T11:02:26Z</time>
      </trkpt>
      <trkpt lat="43.9589" lon="5.20653">
        <ele>594.71</ele>
        <time>2017-09-11T11:02:45Z</time>
      </trkpt>
      <trkpt lat="43.95904" lon="5.20656">
        <ele>596.64</ele>
        <time>2017-09-11T11:03:01Z</time>
      </trkpt>
      <trkpt lat="43.95905" lon="5.20657">
        <ele>596.64</ele>
        <time>2017-09-11T11:03:02Z</time>
      </trkpt>
      <trkpt lat="43.95912" lon="5.20666">
        <ele>597.6</ele>
        <time>2017-09-11T11:03:18Z</time>
      </trkpt>
      <trkpt lat="43.95914" lon="5.20673">
        <ele>598.08</ele>
        <time>2017-09-11T11:03:37Z</time>
      </trkpt>
      <trkpt lat="43.95926" lon="5.20697">
        <ele>596.64</ele>
        <time>2017-09-11T11:03:57Z</time>
      </trkpt>
      <trkpt lat="43.95945" lon="5.20708">
        <ele>596.15</ele>
        <time>2017-09-11T11:04:17Z</time>
      </trkpt>
      <trkpt lat="43.95964" lon="5.20709">
        <ele>597.12</ele>
        <time>2017-09-11T11:04:36Z</time>
      </trkpt>
      <trkpt lat="43.95984" lon="5.20696">
        <ele>597.12</ele>
        <time>2017-09-11T11:04:59Z</time>
      </trkpt>
      <trkpt lat="43.95995" lon="5.20692">
        <ele>595.67</ele>
        <time>2017-09-11T11:05:09Z</time>
      </trkpt>
      <trkpt lat="43.96014" lon="5.20694">
        <ele>595.67</ele>
        <time>2017-09-11T11:05:28Z</time>
      </trkpt>
      <trkpt lat="43.96033" lon="5.20709">
        <ele>595.67</ele>
        <time>2017-09-11T11:05:47Z</time>
      </trkpt>
      <trkpt lat="43.9605" lon="5.20723">
        <ele>595.67</ele>
        <time>2017-09-11T11:06:05Z</time>
      </trkpt>
      <trkpt lat="43.96067" lon="5.20734">
        <ele>597.12</ele>
        <time>2017-09-11T11:06:22Z</time>
      </trkpt>
      <trkpt lat="43.96076" lon="5.20735">
        <ele>598.56</ele>
        <time>2017-09-11T11:06:32Z</time>
      </trkpt>
      <trkpt lat="43.96089" lon="5.20737">
        <ele>600.48</ele>
        <time>2017-09-11T11:06:46Z</time>
      </trkpt>
      <trkpt lat="43.96101" lon="5.20749">
        <ele>601.92</ele>
        <time>2017-09-11T11:07:01Z</time>
      </trkpt>
      <trkpt lat="43.96106" lon="5.20755">
        <ele>602.4</ele>
        <time>2017-09-11T11:07:08Z</time>
      </trkpt>
      <trkpt lat="43.96116" lon="5.20767">
        <ele>604.81</ele>
        <time>2017-09-11T11:07:23Z</time>
      </trkpt>
      <trkpt lat="43.96129" lon="5.20777">
        <ele>606.25</ele>
        <time>2017-09-11T11:07:40Z</time>
      </trkpt>
      <trkpt lat="43.96143" lon="5.20782">
        <ele>608.17</ele>
        <time>2017-09-11T11:07:56Z</time>
      </trkpt>
      <trkpt lat="43.96158" lon="5.20784">
        <ele>609.61</ele>
        <time>2017-09-11T11:08:13Z</time>
      </trkpt>
      <trkpt lat="43.96162" lon="5.20782">
        <ele>611.06</ele>
        <time>2017-09-11T11:08:29Z</time>
      </trkpt>
      <trkpt lat="43.96161" lon="5.20783">
        <ele>609.61</ele>
        <time>2017-09-11T11:08:49Z</time>
      </trkpt>
      <trkpt lat="43.96161" lon="5.20783">
        <ele>611.06</ele>
        <time>2017-09-11T11:08:51Z</time>
      </trkpt>
      <trkpt lat="43.9616" lon="5.20783">
        <ele>609.13</ele>
        <time>2017-09-11T11:08:54Z</time>
      </trkpt>
      <trkpt lat="43.9616" lon="5.20782">
        <ele>611.06</ele>
        <time>2017-09-11T11:08:56Z</time>
      </trkpt>
      <trkpt lat="43.96157" lon="5.20779">
        <ele>611.06</ele>
        <time>2017-09-11T11:09:19Z</time>
      </trkpt>
      <trkpt lat="43.96157" lon="5.2078">
        <ele>611.06</ele>
        <time>2017-09-11T11:09:47Z</time>
      </trkpt>
      <trkpt lat="43.96157" lon="5.20779">
        <ele>611.54</ele>
        <time>2017-09-11T11:10:17Z</time>
      </trkpt>
      <trkpt lat="43.96157" lon="5.2078">
        <ele>611.54</ele>
        <time>2017-09-11T11:10:52Z</time>
      </trkpt>
      <trkpt lat="43.96157" lon="5.20779">
        <ele>611.54</ele>
        <time>2017-09-11T11:11:22Z</time>
      </trkpt>
      <trkpt lat="43.96157" lon="5.20781">
        <ele>609.61</ele>
        <time>2017-09-11T11:11:44Z</time>
      </trkpt>
      <trkpt lat="43.96157" lon="5.20781">
        <ele>611.06</ele>
        <time>2017-09-11T11:11:49Z</time>
      </trkpt>
      <trkpt lat="43.96168" lon="5.20785">
        <ele>611.54</ele>
        <time>2017-09-11T11:12:11Z</time>
      </trkpt>
      <trkpt lat="43.96172" lon="5.20787">
        <ele>612.02</ele>
        <time>2017-09-11T11:12:15Z</time>
      </trkpt>
      <trkpt lat="43.96176" lon="5.20789">
        <ele>610.57</ele>
        <time>2017-09-11T11:12:19Z</time>
      </trkpt>
      <trkpt lat="43.96178" lon="5.2079">
        <ele>612.98</ele>
        <time>2017-09-11T11:12:22Z</time>
      </trkpt>
      <trkpt lat="43.96179" lon="5.2079">
        <ele>612.98</ele>
        <time>2017-09-11T11:12:23Z</time>
      </trkpt>
      <trkpt lat="43.96196" lon="5.20796">
        <ele>613.94</ele>
        <time>2017-09-11T11:12:42Z</time>
      </trkpt>
      <trkpt lat="43.96214" lon="5.20802">
        <ele>615.38</ele>
        <time>2017-09-11T11:13:00Z</time>
      </trkpt>
      <trkpt lat="43.96232" lon="5.2081">
        <ele>616.82</ele>
        <time>2017-09-11T11:13:18Z</time>
      </trkpt>
      <trkpt lat="43.96251" lon="5.20819">
        <ele>617.78</ele>
        <time>2017-09-11T11:13:38Z</time>
      </trkpt>
      <trkpt lat="43.96271" lon="5.20831">
        <ele>618.26</ele>
        <time>2017-09-11T11:13:58Z</time>
      </trkpt>
      <trkpt lat="43.96287" lon="5.20841">
        <ele>618.75</ele>
        <time>2017-09-11T11:14:14Z</time>
      </trkpt>
      <trkpt lat="43.96309" lon="5.20855">
        <ele>618.26</ele>
        <time>2017-09-11T11:14:36Z</time>
      </trkpt>
      <trkpt lat="43.9632" lon="5.2086">
        <ele>619.23</ele>
        <time>2017-09-11T11:14:46Z</time>
      </trkpt>
      <trkpt lat="43.96322" lon="5.20861">
        <ele>617.78</ele>
        <time>2017-09-11T11:14:49Z</time>
      </trkpt>
      <trkpt lat="43.96326" lon="5.20863">
        <ele>619.23</ele>
        <time>2017-09-11T11:14:53Z</time>
      </trkpt>
      <trkpt lat="43.96334" lon="5.20865">
        <ele>617.78</ele>
        <time>2017-09-11T11:15:01Z</time>
      </trkpt>
      <trkpt lat="43.96343" lon="5.20868">
        <ele>619.71</ele>
        <time>2017-09-11T11:15:09Z</time>
      </trkpt>
      <trkpt lat="43.96365" lon="5.20878">
        <ele>618.26</ele>
        <time>2017-09-11T11:15:31Z</time>
      </trkpt>
      <trkpt lat="43.96384" lon="5.20885">
        <ele>619.71</ele>
        <time>2017-09-11T11:15:49Z</time>
      </trkpt>
      <trkpt lat="43.96392" lon="5.20889">
        <ele>618.26</ele>
        <time>2017-09-11T11:15:57Z</time>
      </trkpt>
      <trkpt lat="43.9641" lon="5.20904">
        <ele>618.26</ele>
        <time>2017-09-11T11:16:17Z</time>
      </trkpt>
      <trkpt lat="43.96411" lon="5.20905">
        <ele>618.26</ele>
        <time>2017-09-11T11:16:18Z</time>
      </trkpt>
      <trkpt lat="43.96413" lon="5.20907">
        <ele>616.82</ele>
        <time>2017-09-11T11:16:20Z</time>
      </trkpt>
      <trkpt lat="43.96432" lon="5.20921">
        <ele>614.9</ele>
        <time>2017-09-11T11:16:41Z</time>
      </trkpt>
      <trkpt lat="43.96445" lon="5.20926">
        <ele>613.94</ele>
        <time>2017-09-11T11:16:54Z</time>
      </trkpt>
      <trkpt lat="43.96447" lon="5.20926">
        <ele>614.9</ele>
        <time>2017-09-11T11:16:56Z</time>
      </trkpt>
      <trkpt lat="43.96451" lon="5.20928">
        <ele>613.46</ele>
        <time>2017-09-11T11:17:00Z</time>
      </trkpt>
      <trkpt lat="43.96471" lon="5.20936">
        <ele>612.5</ele>
        <time>2017-09-11T11:17:20Z</time>
      </trkpt>
      <trkpt lat="43.96482" lon="5.20941">
        <ele>613.94</ele>
        <time>2017-09-11T11:17:30Z</time>
      </trkpt>
      <trkpt lat="43.96498" lon="5.20948">
        <ele>613.94</ele>
        <time>2017-09-11T11:17:46Z</time>
      </trkpt>
      <trkpt lat="43.96516" lon="5.20961">
        <ele>616.82</ele>
        <time>2017-09-11T11:18:05Z</time>
      </trkpt>
      <trkpt lat="43.96529" lon="5.20974">
        <ele>618.75</ele>
        <time>2017-09-11T11:18:23Z</time>
      </trkpt>
      <trkpt lat="43.96538" lon="5.20996">
        <ele>620.19</ele>
        <time>2017-09-11T11:18:39Z</time>
      </trkpt>
      <trkpt lat="43.96542" lon="5.2101">
        <ele>622.11</ele>
        <time>2017-09-11T11:18:50Z</time>
      </trkpt>
      <trkpt lat="43.96543" lon="5.21033">
        <ele>622.11</ele>
        <time>2017-09-11T11:19:06Z</time>
      </trkpt>
      <trkpt lat="43.96543" lon="5.21051">
        <ele>622.11</ele>
        <time>2017-09-11T11:19:18Z</time>
      </trkpt>
      <trkpt lat="43.96549" lon="5.21067">
        <ele>623.55</ele>
        <time>2017-09-11T11:19:31Z</time>
      </trkpt>
      <trkpt lat="43.96556" lon="5.21075">
        <ele>624.51</ele>
        <time>2017-09-11T11:19:40Z</time>
      </trkpt>
      <trkpt lat="43.96569" lon="5.21095">
        <ele>624.51</ele>
        <time>2017-09-11T11:19:57Z</time>
      </trkpt>
      <trkpt lat="43.9658" lon="5.21119">
        <ele>625.47</ele>
        <time>2017-09-11T11:20:16Z</time>
      </trkpt>
      <trkpt lat="43.96581" lon="5.21122">
        <ele>625.96</ele>
        <time>2017-09-11T11:20:18Z</time>
      </trkpt>
      <trkpt lat="43.96589" lon="5.21149">
        <ele>626.44</ele>
        <time>2017-09-11T11:20:38Z</time>
      </trkpt>
      <trkpt lat="43.96601" lon="5.21175">
        <ele>627.4</ele>
        <time>2017-09-11T11:21:00Z</time>
      </trkpt>
      <trkpt lat="43.96601" lon="5.21179">
        <ele>627.4</ele>
        <time>2017-09-11T11:21:08Z</time>
      </trkpt>
      <trkpt lat="43.96603" lon="5.2118">
        <ele>626.92</ele>
        <time>2017-09-11T11:21:24Z</time>
      </trkpt>
      <trkpt lat="43.96602" lon="5.21178">
        <ele>627.4</ele>
        <time>2017-09-11T11:21:36Z</time>
      </trkpt>
      <trkpt lat="43.96603" lon="5.21179">
        <ele>627.4</ele>
        <time>2017-09-11T11:21:55Z</time>
      </trkpt>
      <trkpt lat="43.96602" lon="5.21179">
        <ele>627.4</ele>
        <time>2017-09-11T11:22:08Z</time>
      </trkpt>
      <trkpt lat="43.96601" lon="5.21178">
        <ele>625.96</ele>
        <time>2017-09-11T11:22:12Z</time>
      </trkpt>
      <trkpt lat="43.96602" lon="5.21178">
        <ele>627.88</ele>
        <time>2017-09-11T11:22:19Z</time>
      </trkpt>
      <trkpt lat="43.96603" lon="5.2118">
        <ele>627.4</ele>
        <time>2017-09-11T11:22:23Z</time>
      </trkpt>
      <trkpt lat="43.96604" lon="5.21182">
        <ele>627.4</ele>
        <time>2017-09-11T11:22:25Z</time>
      </trkpt>
      <trkpt lat="43.96606" lon="5.21189">
        <ele>627.4</ele>
        <time>2017-09-11T11:22:30Z</time>
      </trkpt>
      <trkpt lat="43.96619" lon="5.21222">
        <ele>625.96</ele>
        <time>2017-09-11T11:22:55Z</time>
      </trkpt>
      <trkpt lat="43.96625" lon="5.21219">
        <ele>626.92</ele>
        <time>2017-09-11T11:23:03Z</time>
      </trkpt>
      <trkpt lat="43.96628" lon="5.21205">
        <ele>627.88</ele>
        <time>2017-09-11T11:23:18Z</time>
      </trkpt>
      <trkpt lat="43.96638" lon="5.21183">
        <ele>629.8</ele>
        <time>2017-09-11T11:23:37Z</time>
      </trkpt>
      <trkpt lat="43.96643" lon="5.21175">
        <ele>628.84</ele>
        <time>2017-09-11T11:23:45Z</time>
      </trkpt>
      <trkpt lat="43.96654" lon="5.21157">
        <ele>630.76</ele>
        <time>2017-09-11T11:24:03Z</time>
      </trkpt>
      <trkpt lat="43.96658" lon="5.21143">
        <ele>632.68</ele>
        <time>2017-09-11T11:24:14Z</time>
      </trkpt>
      <trkpt lat="43.96659" lon="5.21142">
        <ele>631.72</ele>
        <time>2017-09-11T11:24:16Z</time>
      </trkpt>
      <trkpt lat="43.96664" lon="5.21124">
        <ele>632.2</ele>
        <time>2017-09-11T11:24:33Z</time>
      </trkpt>
      <trkpt lat="43.96676" lon="5.21106">
        <ele>632.2</ele>
        <time>2017-09-11T11:24:51Z</time>
      </trkpt>
      <trkpt lat="43.96681" lon="5.21094">
        <ele>630.76</ele>
        <time>2017-09-11T11:25:02Z</time>
      </trkpt>
      <trkpt lat="43.96682" lon="5.21092">
        <ele>632.2</ele>
        <time>2017-09-11T11:25:04Z</time>
      </trkpt>
      <trkpt lat="43.96689" lon="5.21076">
        <ele>631.72</ele>
        <time>2017-09-11T11:25:17Z</time>
      </trkpt>
      <trkpt lat="43.96695" lon="5.21052">
        <ele>631.72</ele>
        <time>2017-09-11T11:25:35Z</time>
      </trkpt>
      <trkpt lat="43.96698" lon="5.21044">
        <ele>630.28</ele>
        <time>2017-09-11T11:25:41Z</time>
      </trkpt>
      <trkpt lat="43.96702" lon="5.21036">
        <ele>631.72</ele>
        <time>2017-09-11T11:25:47Z</time>
      </trkpt>
      <trkpt lat="43.96706" lon="5.21025">
        <ele>630.28</ele>
        <time>2017-09-11T11:25:56Z</time>
      </trkpt>
      <trkpt lat="43.96713" lon="5.21011">
        <ele>630.28</ele>
        <time>2017-09-11T11:26:08Z</time>
      </trkpt>
      <trkpt lat="43.96718" lon="5.21">
        <ele>628.84</ele>
        <time>2017-09-11T11:26:15Z</time>
      </trkpt>
      <trkpt lat="43.96722" lon="5.20988">
        <ele>630.28</ele>
        <time>2017-09-11T11:26:23Z</time>
      </trkpt>
      <trkpt lat="43.96724" lon="5.20982">
        <ele>628.84</ele>
        <time>2017-09-11T11:26:28Z</time>
      </trkpt>
      <trkpt lat="43.96736" lon="5.20957">
        <ele>628.36</ele>
        <time>2017-09-11T11:26:46Z</time>
      </trkpt>
      <trkpt lat="43.96743" lon="5.20939">
        <ele>628.36</ele>
        <time>2017-09-11T11:27:03Z</time>
      </trkpt>
      <trkpt lat="43.96748" lon="5.20928">
        <ele>627.4</ele>
        <time>2017-09-11T11:27:24Z</time>
      </trkpt>
      <trkpt lat="43.96753" lon="5.20916">
        <ele>628.84</ele>
        <time>2017-09-11T11:27:34Z</time>
      </trkpt>
      <trkpt lat="43.96755" lon="5.20911">
        <ele>626.92</ele>
        <time>2017-09-11T11:27:38Z</time>
      </trkpt>
      <trkpt lat="43.9676" lon="5.20895">
        <ele>626.44</ele>
        <time>2017-09-11T11:27:53Z</time>
      </trkpt>
      <trkpt lat="43.96761" lon="5.20895">
        <ele>626.44</ele>
        <time>2017-09-11T11:28:05Z</time>
      </trkpt>
      <trkpt lat="43.96757" lon="5.20874">
        <ele>626.44</ele>
        <time>2017-09-11T11:28:21Z</time>
      </trkpt>
      <trkpt lat="43.96757" lon="5.20872">
        <ele>626.44</ele>
        <time>2017-09-11T11:28:23Z</time>
      </trkpt>
      <trkpt lat="43.96762" lon="5.20865">
        <ele>627.4</ele>
        <time>2017-09-11T11:28:32Z</time>
      </trkpt>
      <trkpt lat="43.96762" lon="5.20867">
        <ele>625.96</ele>
        <time>2017-09-11T11:28:38Z</time>
      </trkpt>
      <trkpt lat="43.96753" lon="5.20863">
        <ele>625.96</ele>
        <time>2017-09-11T11:28:49Z</time>
      </trkpt>
      <trkpt lat="43.96751" lon="5.20861">
        <ele>625.96</ele>
        <time>2017-09-11T11:28:52Z</time>
      </trkpt>
      <trkpt lat="43.96748" lon="5.20859">
        <ele>628.84</ele>
        <time>2017-09-11T11:28:55Z</time>
      </trkpt>
      <trkpt lat="43.96741" lon="5.20856">
        <ele>627.4</ele>
        <time>2017-09-11T11:29:02Z</time>
      </trkpt>
      <trkpt lat="43.96735" lon="5.20851">
        <ele>628.36</ele>
        <time>2017-09-11T11:29:08Z</time>
      </trkpt>
      <trkpt lat="43.96726" lon="5.20836">
        <ele>628.36</ele>
        <time>2017-09-11T11:29:28Z</time>
      </trkpt>
      <trkpt lat="43.96731" lon="5.20825">
        <ele>628.36</ele>
        <time>2017-09-11T11:29:43Z</time>
      </trkpt>
      <trkpt lat="43.96733" lon="5.20821">
        <ele>626.92</ele>
        <time>2017-09-11T11:29:46Z</time>
      </trkpt>
      <trkpt lat="43.96738" lon="5.20817">
        <ele>628.84</ele>
        <time>2017-09-11T11:29:52Z</time>
      </trkpt>
      <trkpt lat="43.96741" lon="5.20814">
        <ele>626.92</ele>
        <time>2017-09-11T11:29:56Z</time>
      </trkpt>
      <trkpt lat="43.9675" lon="5.20799">
        <ele>625.96</ele>
        <time>2017-09-11T11:30:12Z</time>
      </trkpt>
      <trkpt lat="43.96761" lon="5.20778">
        <ele>624.03</ele>
        <time>2017-09-11T11:30:32Z</time>
      </trkpt>
      <trkpt lat="43.9677" lon="5.2076">
        <ele>621.15</ele>
        <time>2017-09-11T11:30:49Z</time>
      </trkpt>
      <trkpt lat="43.96782" lon="5.20761">
        <ele>618.75</ele>
        <time>2017-09-11T11:31:08Z</time>
      </trkpt>
      <trkpt lat="43.96794" lon="5.20762">
        <ele>615.38</ele>
        <time>2017-09-11T11:31:25Z</time>
      </trkpt>
      <trkpt lat="43.96811" lon="5.2076">
        <ele>612.5</ele>
        <time>2017-09-11T11:31:47Z</time>
      </trkpt>
      <trkpt lat="43.96829" lon="5.20757">
        <ele>611.06</ele>
        <time>2017-09-11T11:32:07Z</time>
      </trkpt>
      <trkpt lat="43.96836" lon="5.20754">
        <ele>610.57</ele>
        <time>2017-09-11T11:32:23Z</time>
      </trkpt>
      <trkpt lat="43.96844" lon="5.20743">
        <ele>608.65</ele>
        <time>2017-09-11T11:32:39Z</time>
      </trkpt>
      <trkpt lat="43.96851" lon="5.20735">
        <ele>607.21</ele>
        <time>2017-09-11T11:32:53Z</time>
      </trkpt>
      <trkpt lat="43.96852" lon="5.20735">
        <ele>607.21</ele>
        <time>2017-09-11T11:32:54Z</time>
      </trkpt>
      <trkpt lat="43.96865" lon="5.2073">
        <ele>605.29</ele>
        <time>2017-09-11T11:33:13Z</time>
      </trkpt>
      <trkpt lat="43.96875" lon="5.20719">
        <ele>603.85</ele>
        <time>2017-09-11T11:33:30Z</time>
      </trkpt>
      <trkpt lat="43.96882" lon="5.20718">
        <ele>603.36</ele>
        <time>2017-09-11T11:33:39Z</time>
      </trkpt>
      <trkpt lat="43.96897" lon="5.2072">
        <ele>602.4</ele>
        <time>2017-09-11T11:33:57Z</time>
      </trkpt>
      <trkpt lat="43.969" lon="5.20718">
        <ele>600.96</ele>
        <time>2017-09-11T11:34:09Z</time>
      </trkpt>
      <trkpt lat="43.96899" lon="5.20717">
        <ele>600.96</ele>
        <time>2017-09-11T11:34:13Z</time>
      </trkpt>
      <trkpt lat="43.96894" lon="5.20721">
        <ele>602.4</ele>
        <time>2017-09-11T11:34:19Z</time>
      </trkpt>
      <trkpt lat="43.96891" lon="5.20721">
        <ele>602.88</ele>
        <time>2017-09-11T11:34:23Z</time>
      </trkpt>
      <trkpt lat="43.96875" lon="5.20724">
        <ele>603.85</ele>
        <time>2017-09-11T11:34:38Z</time>
      </trkpt>
      <trkpt lat="43.96861" lon="5.20734">
        <ele>606.25</ele>
        <time>2017-09-11T11:34:53Z</time>
      </trkpt>
      <trkpt lat="43.9686" lon="5.20735">
        <ele>607.21</ele>
        <time>2017-09-11T11:34:55Z</time>
      </trkpt>
      <trkpt lat="43.96851" lon="5.20737">
        <ele>609.13</ele>
        <time>2017-09-11T11:35:04Z</time>
      </trkpt>
      <trkpt lat="43.96848" lon="5.20738">
        <ele>608.17</ele>
        <time>2017-09-11T11:35:08Z</time>
      </trkpt>
      <trkpt lat="43.96848" lon="5.20739">
        <ele>609.13</ele>
        <time>2017-09-11T11:35:12Z</time>
      </trkpt>
      <trkpt lat="43.96847" lon="5.2074">
        <ele>608.17</ele>
        <time>2017-09-11T11:35:17Z</time>
      </trkpt>
      <trkpt lat="43.96848" lon="5.20733">
        <ele>607.69</ele>
        <time>2017-09-11T11:35:30Z</time>
      </trkpt>
      <trkpt lat="43.96846" lon="5.20721">
        <ele>607.21</ele>
        <time>2017-09-11T11:35:42Z</time>
      </trkpt>
      <trkpt lat="43.96842" lon="5.20712">
        <ele>606.73</ele>
        <time>2017-09-11T11:35:56Z</time>
      </trkpt>
      <trkpt lat="43.96839" lon="5.20706">
        <ele>605.77</ele>
        <time>2017-09-11T11:36:04Z</time>
      </trkpt>
      <trkpt lat="43.96832" lon="5.20691">
        <ele>604.33</ele>
        <time>2017-09-11T11:36:20Z</time>
      </trkpt>
      <trkpt lat="43.96828" lon="5.20686">
        <ele>601.44</ele>
        <time>2017-09-11T11:36:28Z</time>
      </trkpt>
      <trkpt lat="43.96826" lon="5.20684">
        <ele>604.33</ele>
        <time>2017-09-11T11:36:30Z</time>
      </trkpt>
      <trkpt lat="43.96825" lon="5.20683">
        <ele>602.88</ele>
        <time>2017-09-11T11:36:32Z</time>
      </trkpt>
      <trkpt lat="43.9682" lon="5.20675">
        <ele>602.88</ele>
        <time>2017-09-11T11:36:45Z</time>
      </trkpt>
      <trkpt lat="43.96819" lon="5.20661">
        <ele>601.44</ele>
        <time>2017-09-11T11:37:00Z</time>
      </trkpt>
      <trkpt lat="43.9682" lon="5.20648">
        <ele>599.52</ele>
        <time>2017-09-11T11:37:13Z</time>
      </trkpt>
      <trkpt lat="43.96826" lon="5.20637">
        <ele>597.6</ele>
        <time>2017-09-11T11:37:28Z</time>
      </trkpt>
      <trkpt lat="43.96831" lon="5.20622">
        <ele>595.19</ele>
        <time>2017-09-11T11:37:42Z</time>
      </trkpt>
      <trkpt lat="43.96831" lon="5.20615">
        <ele>594.23</ele>
        <time>2017-09-11T11:37:47Z</time>
      </trkpt>
      <trkpt lat="43.96829" lon="5.20596">
        <ele>595.67</ele>
        <time>2017-09-11T11:38:03Z</time>
      </trkpt>
      <trkpt lat="43.96836" lon="5.20577">
        <ele>594.23</ele>
        <time>2017-09-11T11:38:20Z</time>
      </trkpt>
      <trkpt lat="43.96845" lon="5.20559">
        <ele>593.27</ele>
        <time>2017-09-11T11:38:36Z</time>
      </trkpt>
      <trkpt lat="43.96848" lon="5.20554">
        <ele>593.27</ele>
        <time>2017-09-11T11:38:41Z</time>
      </trkpt>
      <trkpt lat="43.96855" lon="5.20533">
        <ele>595.19</ele>
        <time>2017-09-11T11:38:58Z</time>
      </trkpt>
      <trkpt lat="43.96865" lon="5.2052">
        <ele>596.15</ele>
        <time>2017-09-11T11:39:13Z</time>
      </trkpt>
      <trkpt lat="43.96868" lon="5.20514">
        <ele>596.64</ele>
        <time>2017-09-11T11:39:28Z</time>
      </trkpt>
      <trkpt lat="43.96868" lon="5.20512">
        <ele>597.12</ele>
        <time>2017-09-11T11:39:52Z</time>
      </trkpt>
      <trkpt lat="43.96868" lon="5.20513">
        <ele>596.15</ele>
        <time>2017-09-11T11:40:02Z</time>
      </trkpt>
      <trkpt lat="43.96871" lon="5.20515">
        <ele>596.15</ele>
        <time>2017-09-11T11:40:21Z</time>
      </trkpt>
      <trkpt lat="43.96867" lon="5.20511">
        <ele>596.15</ele>
        <time>2017-09-11T11:40:34Z</time>
      </trkpt>
      <trkpt lat="43.96856" lon="5.20503">
        <ele>597.12</ele>
        <time>2017-09-11T11:40:51Z</time>
      </trkpt>
      <trkpt lat="43.96852" lon="5.2049">
        <ele>597.6</ele>
        <time>2017-09-11T11:41:07Z</time>
      </trkpt>
      <trkpt lat="43.96848" lon="5.20475">
        <ele>597.6</ele>
        <time>2017-09-11T11:41:22Z</time>
      </trkpt>
      <trkpt lat="43.96846" lon="5.20469">
        <ele>596.64</ele>
        <time>2017-09-11T11:41:29Z</time>
      </trkpt>
      <trkpt lat="43.96845" lon="5.20464">
        <ele>596.15</ele>
        <time>2017-09-11T11:41:44Z</time>
      </trkpt>
      <trkpt lat="43.96846" lon="5.20462">
        <ele>597.6</ele>
        <time>2017-09-11T11:41:54Z</time>
      </trkpt>
      <trkpt lat="43.96846" lon="5.20461">
        <ele>596.15</ele>
        <time>2017-09-11T11:41:58Z</time>
      </trkpt>
      <trkpt lat="43.96845" lon="5.2046">
        <ele>594.23</ele>
        <time>2017-09-11T11:42:16Z</time>
      </trkpt>
      <trkpt lat="43.96845" lon="5.2046">
        <ele>598.56</ele>
        <time>2017-09-11T11:42:18Z</time>
      </trkpt>
      <trkpt lat="43.96846" lon="5.2046">
        <ele>596.15</ele>
        <time>2017-09-11T11:42:19Z</time>
      </trkpt>
      <trkpt lat="43.96845" lon="5.20445">
        <ele>595.19</ele>
        <time>2017-09-11T11:42:34Z</time>
      </trkpt>
      <trkpt lat="43.96841" lon="5.2043">
        <ele>594.71</ele>
        <time>2017-09-11T11:42:52Z</time>
      </trkpt>
      <trkpt lat="43.96835" lon="5.20416">
        <ele>593.75</ele>
        <time>2017-09-11T11:43:06Z</time>
      </trkpt>
      <trkpt lat="43.96833" lon="5.20413">
        <ele>593.75</ele>
        <time>2017-09-11T11:43:17Z</time>
      </trkpt>
      <trkpt lat="43.96833" lon="5.20412">
        <ele>590.39</ele>
        <time>2017-09-11T11:43:20Z</time>
      </trkpt>
      <trkpt lat="43.96832" lon="5.20411">
        <ele>594.23</ele>
        <time>2017-09-11T11:43:21Z</time>
      </trkpt>
      <trkpt lat="43.96821" lon="5.204">
        <ele>592.79</ele>
        <time>2017-09-11T11:43:38Z</time>
      </trkpt>
      <trkpt lat="43.96817" lon="5.20398">
        <ele>591.83</ele>
        <time>2017-09-11T11:43:44Z</time>
      </trkpt>
      <trkpt lat="43.96815" lon="5.20397">
        <ele>593.27</ele>
        <time>2017-09-11T11:43:46Z</time>
      </trkpt>
      <trkpt lat="43.96814" lon="5.20397">
        <ele>593.75</ele>
        <time>2017-09-11T11:43:48Z</time>
      </trkpt>
      <trkpt lat="43.96807" lon="5.20395">
        <ele>593.75</ele>
        <time>2017-09-11T11:44:02Z</time>
      </trkpt>
      <trkpt lat="43.96807" lon="5.20394">
        <ele>591.83</ele>
        <time>2017-09-11T11:44:04Z</time>
      </trkpt>
      <trkpt lat="43.96807" lon="5.20394">
        <ele>592.79</ele>
        <time>2017-09-11T11:44:11Z</time>
      </trkpt>
      <trkpt lat="43.96796" lon="5.20389">
        <ele>591.83</ele>
        <time>2017-09-11T11:44:33Z</time>
      </trkpt>
      <trkpt lat="43.96785" lon="5.20389">
        <ele>593.27</ele>
        <time>2017-09-11T11:44:46Z</time>
      </trkpt>
      <trkpt lat="43.96782" lon="5.20389">
        <ele>594.23</ele>
        <time>2017-09-11T11:44:49Z</time>
      </trkpt>
      <trkpt lat="43.96778" lon="5.20389">
        <ele>594.71</ele>
        <time>2017-09-11T11:44:53Z</time>
      </trkpt>
      <trkpt lat="43.96775" lon="5.20387">
        <ele>594.71</ele>
        <time>2017-09-11T11:44:56Z</time>
      </trkpt>
      <trkpt lat="43.96771" lon="5.20386">
        <ele>594.71</ele>
        <time>2017-09-11T11:45:00Z</time>
      </trkpt>
      <trkpt lat="43.96757" lon="5.20372">
        <ele>595.19</ele>
        <time>2017-09-11T11:45:16Z</time>
      </trkpt>
      <trkpt lat="43.96756" lon="5.20365">
        <ele>595.19</ele>
        <time>2017-09-11T11:45:27Z</time>
      </trkpt>
      <trkpt lat="43.96755" lon="5.20355">
        <ele>593.75</ele>
        <time>2017-09-11T11:45:40Z</time>
      </trkpt>
      <trkpt lat="43.96752" lon="5.20346">
        <ele>593.27</ele>
        <time>2017-09-11T11:45:51Z</time>
      </trkpt>
      <trkpt lat="43.96752" lon="5.20343">
        <ele>591.35</ele>
        <time>2017-09-11T11:45:59Z</time>
      </trkpt>
      <trkpt lat="43.96753" lon="5.20343">
        <ele>592.79</ele>
        <time>2017-09-11T11:46:05Z</time>
      </trkpt>
      <trkpt lat="43.96751" lon="5.20335">
        <ele>590.87</ele>
        <time>2017-09-11T11:46:17Z</time>
      </trkpt>
      <trkpt lat="43.96752" lon="5.20334">
        <ele>590.39</ele>
        <time>2017-09-11T11:46:27Z</time>
      </trkpt>
      <trkpt lat="43.96752" lon="5.20338">
        <ele>591.83</ele>
        <time>2017-09-11T11:46:34Z</time>
      </trkpt>
      <trkpt lat="43.96751" lon="5.20339">
        <ele>592.31</ele>
        <time>2017-09-11T11:46:47Z</time>
      </trkpt>
      <trkpt lat="43.96752" lon="5.20344">
        <ele>593.75</ele>
        <time>2017-09-11T11:47:02Z</time>
      </trkpt>
      <trkpt lat="43.96752" lon="5.20351">
        <ele>594.23</ele>
        <time>2017-09-11T11:47:21Z</time>
      </trkpt>
      <trkpt lat="43.96756" lon="5.20359">
        <ele>595.19</ele>
        <time>2017-09-11T11:47:36Z</time>
      </trkpt>
      <trkpt lat="43.96754" lon="5.20365">
        <ele>595.67</ele>
        <time>2017-09-11T11:47:43Z</time>
      </trkpt>
      <trkpt lat="43.9675" lon="5.20364">
        <ele>595.67</ele>
        <time>2017-09-11T11:47:48Z</time>
      </trkpt>
      <trkpt lat="43.9674" lon="5.2036">
        <ele>597.12</ele>
        <time>2017-09-11T11:48:00Z</time>
      </trkpt>
      <trkpt lat="43.96729" lon="5.20357">
        <ele>597.12</ele>
        <time>2017-09-11T11:48:13Z</time>
      </trkpt>
      <trkpt lat="43.96718" lon="5.20353">
        <ele>597.6</ele>
        <time>2017-09-11T11:48:25Z</time>
      </trkpt>
      <trkpt lat="43.96711" lon="5.2035">
        <ele>598.56</ele>
        <time>2017-09-11T11:48:33Z</time>
      </trkpt>
      <trkpt lat="43.96704" lon="5.20353">
        <ele>600</ele>
        <time>2017-09-11T11:48:44Z</time>
      </trkpt>
      <trkpt lat="43.96698" lon="5.20355">
        <ele>600.96</ele>
        <time>2017-09-11T11:48:57Z</time>
      </trkpt>
      <trkpt lat="43.96687" lon="5.20347">
        <ele>600.96</ele>
        <time>2017-09-11T11:49:11Z</time>
      </trkpt>
      <trkpt lat="43.96681" lon="5.20348">
        <ele>601.44</ele>
        <time>2017-09-11T11:49:22Z</time>
      </trkpt>
      <trkpt lat="43.96677" lon="5.20345">
        <ele>602.4</ele>
        <time>2017-09-11T11:49:36Z</time>
      </trkpt>
      <trkpt lat="43.96676" lon="5.20346">
        <ele>602.4</ele>
        <time>2017-09-11T11:49:58Z</time>
      </trkpt>
      <trkpt lat="43.96676" lon="5.20347">
        <ele>602.88</ele>
        <time>2017-09-11T11:50:15Z</time>
      </trkpt>
      <trkpt lat="43.96669" lon="5.20351">
        <ele>604.81</ele>
        <time>2017-09-11T11:50:28Z</time>
      </trkpt>
      <trkpt lat="43.96663" lon="5.2035">
        <ele>605.29</ele>
        <time>2017-09-11T11:50:40Z</time>
      </trkpt>
      <trkpt lat="43.96663" lon="5.2035">
        <ele>606.25</ele>
        <time>2017-09-11T11:50:54Z</time>
      </trkpt>
      <trkpt lat="43.96659" lon="5.20345">
        <ele>606.25</ele>
        <time>2017-09-11T11:51:09Z</time>
      </trkpt>
      <trkpt lat="43.96654" lon="5.20344">
        <ele>604.81</ele>
        <time>2017-09-11T11:51:22Z</time>
      </trkpt>
      <trkpt lat="43.96654" lon="5.20339">
        <ele>604.81</ele>
        <time>2017-09-11T11:51:37Z</time>
      </trkpt>
      <trkpt lat="43.96649" lon="5.20335">
        <ele>604.33</ele>
        <time>2017-09-11T11:51:52Z</time>
      </trkpt>
      <trkpt lat="43.96645" lon="5.20335">
        <ele>604.33</ele>
        <time>2017-09-11T11:52:04Z</time>
      </trkpt>
      <trkpt lat="43.96645" lon="5.20335">
        <ele>605.77</ele>
        <time>2017-09-11T11:52:13Z</time>
      </trkpt>
      <trkpt lat="43.96647" lon="5.20338">
        <ele>605.77</ele>
        <time>2017-09-11T11:52:24Z</time>
      </trkpt>
      <trkpt lat="43.96646" lon="5.20335">
        <ele>606.25</ele>
        <time>2017-09-11T11:52:36Z</time>
      </trkpt>
      <trkpt lat="43.96647" lon="5.20333">
        <ele>604.81</ele>
        <time>2017-09-11T11:52:40Z</time>
      </trkpt>
      <trkpt lat="43.96648" lon="5.20334">
        <ele>604.33</ele>
        <time>2017-09-11T11:52:53Z</time>
      </trkpt>
      <trkpt lat="43.96652" lon="5.20335">
        <ele>604.33</ele>
        <time>2017-09-11T11:53:11Z</time>
      </trkpt>
      <trkpt lat="43.96655" lon="5.20339">
        <ele>602.88</ele>
        <time>2017-09-11T11:53:24Z</time>
      </trkpt>
      <trkpt lat="43.96655" lon="5.20341">
        <ele>604.33</ele>
        <time>2017-09-11T11:53:29Z</time>
      </trkpt>
      <trkpt lat="43.96661" lon="5.20341">
        <ele>603.85</ele>
        <time>2017-09-11T11:53:43Z</time>
      </trkpt>
      <trkpt lat="43.96666" lon="5.2034">
        <ele>602.4</ele>
        <time>2017-09-11T11:53:57Z</time>
      </trkpt>
      <trkpt lat="43.96672" lon="5.20341">
        <ele>601.92</ele>
        <time>2017-09-11T11:54:11Z</time>
      </trkpt>
      <trkpt lat="43.96678" lon="5.20345">
        <ele>601.44</ele>
        <time>2017-09-11T11:54:25Z</time>
      </trkpt>
      <trkpt lat="43.96682" lon="5.20346">
        <ele>600.96</ele>
        <time>2017-09-11T11:54:37Z</time>
      </trkpt>
      <trkpt lat="43.9668" lon="5.20349">
        <ele>602.4</ele>
        <time>2017-09-11T11:54:44Z</time>
      </trkpt>
      <trkpt lat="43.96679" lon="5.20352">
        <ele>603.36</ele>
        <time>2017-09-11T11:54:57Z</time>
      </trkpt>
      <trkpt lat="43.96681" lon="5.20354">
        <ele>603.36</ele>
        <time>2017-09-11T11:55:09Z</time>
      </trkpt>
      <trkpt lat="43.96682" lon="5.20355">
        <ele>603.85</ele>
        <time>2017-09-11T11:55:22Z</time>
      </trkpt>
      <trkpt lat="43.96685" lon="5.20357">
        <ele>602.88</ele>
        <time>2017-09-11T11:55:36Z</time>
      </trkpt>
      <trkpt lat="43.96688" lon="5.20362">
        <ele>602.88</ele>
        <time>2017-09-11T11:55:49Z</time>
      </trkpt>
      <trkpt lat="43.96692" lon="5.2036">
        <ele>601.44</ele>
        <time>2017-09-11T11:56:01Z</time>
      </trkpt>
      <trkpt lat="43.96695" lon="5.20359">
        <ele>602.4</ele>
        <time>2017-09-11T11:56:21Z</time>
      </trkpt>
      <trkpt lat="43.96697" lon="5.2036">
        <ele>600.96</ele>
        <time>2017-09-11T11:56:31Z</time>
      </trkpt>
      <trkpt lat="43.96697" lon="5.20358">
        <ele>600.48</ele>
        <time>2017-09-11T11:56:43Z</time>
      </trkpt>
      <trkpt lat="43.96701" lon="5.20354">
        <ele>600</ele>
        <time>2017-09-11T11:56:55Z</time>
      </trkpt>
      <trkpt lat="43.96702" lon="5.20355">
        <ele>600</ele>
        <time>2017-09-11T11:57:17Z</time>
      </trkpt>
      <trkpt lat="43.96702" lon="5.20355">
        <ele>599.04</ele>
        <time>2017-09-11T11:57:24Z</time>
      </trkpt>
      <trkpt lat="43.96702" lon="5.20355">
        <ele>600.48</ele>
        <time>2017-09-11T11:57:31Z</time>
      </trkpt>
      <trkpt lat="43.96702" lon="5.20355">
        <ele>600.48</ele>
        <time>2017-09-11T11:57:54Z</time>
      </trkpt>
      <trkpt lat="43.96702" lon="5.20353">
        <ele>600.48</ele>
        <time>2017-09-11T11:58:16Z</time>
      </trkpt>
      <trkpt lat="43.96712" lon="5.20358">
        <ele>599.04</ele>
        <time>2017-09-11T11:58:31Z</time>
      </trkpt>
      <trkpt lat="43.96721" lon="5.2036">
        <ele>599.04</ele>
        <time>2017-09-11T11:58:45Z</time>
      </trkpt>
      <trkpt lat="43.96722" lon="5.20359">
        <ele>599.04</ele>
        <time>2017-09-11T11:58:47Z</time>
      </trkpt>
      <trkpt lat="43.96726" lon="5.20357">
        <ele>599.04</ele>
        <time>2017-09-11T11:58:52Z</time>
      </trkpt>
      <trkpt lat="43.96732" lon="5.20359">
        <ele>597.6</ele>
        <time>2017-09-11T11:58:58Z</time>
      </trkpt>
      <trkpt lat="43.96745" lon="5.20363">
        <ele>597.12</ele>
        <time>2017-09-11T11:59:13Z</time>
      </trkpt>
      <trkpt lat="43.96751" lon="5.20366">
        <ele>597.12</ele>
        <time>2017-09-11T11:59:27Z</time>
      </trkpt>
      <trkpt lat="43.96752" lon="5.20367">
        <ele>597.12</ele>
        <time>2017-09-11T11:59:28Z</time>
      </trkpt>
      <trkpt lat="43.96762" lon="5.20377">
        <ele>597.12</ele>
        <time>2017-09-11T11:59:43Z</time>
      </trkpt>
      <trkpt lat="43.96773" lon="5.20386">
        <ele>596.64</ele>
        <time>2017-09-11T12:00:00Z</time>
      </trkpt>
      <trkpt lat="43.96786" lon="5.20388">
        <ele>596.15</ele>
        <time>2017-09-11T12:00:16Z</time>
      </trkpt>
      <trkpt lat="43.96802" lon="5.20392">
        <ele>594.71</ele>
        <time>2017-09-11T12:00:34Z</time>
      </trkpt>
      <trkpt lat="43.96815" lon="5.20398">
        <ele>594.71</ele>
        <time>2017-09-11T12:00:51Z</time>
      </trkpt>
      <trkpt lat="43.96823" lon="5.20403">
        <ele>594.71</ele>
        <time>2017-09-11T12:01:03Z</time>
      </trkpt>
      <trkpt lat="43.9683" lon="5.2041">
        <ele>595.67</ele>
        <time>2017-09-11T12:01:15Z</time>
      </trkpt>
      <trkpt lat="43.96837" lon="5.20424">
        <ele>596.64</ele>
        <time>2017-09-11T12:01:31Z</time>
      </trkpt>
      <trkpt lat="43.96843" lon="5.20434">
        <ele>597.6</ele>
        <time>2017-09-11T12:01:47Z</time>
      </trkpt>
      <trkpt lat="43.96843" lon="5.20434">
        <ele>597.6</ele>
        <time>2017-09-11T12:01:53Z</time>
      </trkpt>
      <trkpt lat="43.96857" lon="5.20427">
        <ele>597.6</ele>
        <time>2017-09-11T12:02:04Z</time>
      </trkpt>
      <trkpt lat="43.96858" lon="5.20424">
        <ele>597.6</ele>
        <time>2017-09-11T12:02:17Z</time>
      </trkpt>
      <trkpt lat="43.96855" lon="5.20419">
        <ele>596.15</ele>
        <time>2017-09-11T12:02:25Z</time>
      </trkpt>
      <trkpt lat="43.96855" lon="5.20408">
        <ele>595.19</ele>
        <time>2017-09-11T12:02:39Z</time>
      </trkpt>
      <trkpt lat="43.96855" lon="5.20407">
        <ele>595.19</ele>
        <time>2017-09-11T12:02:49Z</time>
      </trkpt>
      <trkpt lat="43.96855" lon="5.20407">
        <ele>595.19</ele>
        <time>2017-09-11T12:03:05Z</time>
      </trkpt>
      <trkpt lat="43.96855" lon="5.20404">
        <ele>595.19</ele>
        <time>2017-09-11T12:03:10Z</time>
      </trkpt>
      <trkpt lat="43.96855" lon="5.20391">
        <ele>594.23</ele>
        <time>2017-09-11T12:03:23Z</time>
      </trkpt>
      <trkpt lat="43.96852" lon="5.20379">
        <ele>593.75</ele>
        <time>2017-09-11T12:03:37Z</time>
      </trkpt>
      <trkpt lat="43.96845" lon="5.20365">
        <ele>592.31</ele>
        <time>2017-09-11T12:03:54Z</time>
      </trkpt>
      <trkpt lat="43.9684" lon="5.20356">
        <ele>592.31</ele>
        <time>2017-09-11T12:04:05Z</time>
      </trkpt>
      <trkpt lat="43.9684" lon="5.2035">
        <ele>590.87</ele>
        <time>2017-09-11T12:04:10Z</time>
      </trkpt>
      <trkpt lat="43.96837" lon="5.20335">
        <ele>589.91</ele>
        <time>2017-09-11T12:04:23Z</time>
      </trkpt>
      <trkpt lat="43.96832" lon="5.20324">
        <ele>589.91</ele>
        <time>2017-09-11T12:04:35Z</time>
      </trkpt>
      <trkpt lat="43.96827" lon="5.20317">
        <ele>587.98</ele>
        <time>2017-09-11T12:04:51Z</time>
      </trkpt>
      <trkpt lat="43.96827" lon="5.20317">
        <ele>588.46</ele>
        <time>2017-09-11T12:05:11Z</time>
      </trkpt>
      <trkpt lat="43.96828" lon="5.20317">
        <ele>588.46</ele>
        <time>2017-09-11T12:05:30Z</time>
      </trkpt>
      <trkpt lat="43.96824" lon="5.20309">
        <ele>587.98</ele>
        <time>2017-09-11T12:05:48Z</time>
      </trkpt>
      <trkpt lat="43.96816" lon="5.20305">
        <ele>587.02</ele>
        <time>2017-09-11T12:06:02Z</time>
      </trkpt>
      <trkpt lat="43.96812" lon="5.20294">
        <ele>585.58</ele>
        <time>2017-09-11T12:06:16Z</time>
      </trkpt>
      <trkpt lat="43.96805" lon="5.20291">
        <ele>584.62</ele>
        <time>2017-09-11T12:06:29Z</time>
      </trkpt>
      <trkpt lat="43.96804" lon="5.20291">
        <ele>584.62</ele>
        <time>2017-09-11T12:06:31Z</time>
      </trkpt>
      <trkpt lat="43.96795" lon="5.20284">
        <ele>582.7</ele>
        <time>2017-09-11T12:06:45Z</time>
      </trkpt>
      <trkpt lat="43.96787" lon="5.20278">
        <ele>581.73</ele>
        <time>2017-09-11T12:06:55Z</time>
      </trkpt>
      <trkpt lat="43.96777" lon="5.20267">
        <ele>580.29</ele>
        <time>2017-09-11T12:07:09Z</time>
      </trkpt>
      <trkpt lat="43.96768" lon="5.20258">
        <ele>579.33</ele>
        <time>2017-09-11T12:07:25Z</time>
      </trkpt>
      <trkpt lat="43.96766" lon="5.20248">
        <ele>578.37</ele>
        <time>2017-09-11T12:07:40Z</time>
      </trkpt>
      <trkpt lat="43.96766" lon="5.20245">
        <ele>577.89</ele>
        <time>2017-09-11T12:07:48Z</time>
      </trkpt>
      <trkpt lat="43.96762" lon="5.20227">
        <ele>576.45</ele>
        <time>2017-09-11T12:08:03Z</time>
      </trkpt>
      <trkpt lat="43.96756" lon="5.20212">
        <ele>574.04</ele>
        <time>2017-09-11T12:08:17Z</time>
      </trkpt>
      <trkpt lat="43.96753" lon="5.20198">
        <ele>572.6</ele>
        <time>2017-09-11T12:08:31Z</time>
      </trkpt>
      <trkpt lat="43.96748" lon="5.20184">
        <ele>572.12</ele>
        <time>2017-09-11T12:08:47Z</time>
      </trkpt>
      <trkpt lat="43.96745" lon="5.2017">
        <ele>569.24</ele>
        <time>2017-09-11T12:09:00Z</time>
      </trkpt>
      <trkpt lat="43.96738" lon="5.20151">
        <ele>567.8</ele>
        <time>2017-09-11T12:09:18Z</time>
      </trkpt>
      <trkpt lat="43.96737" lon="5.20135">
        <ele>566.35</ele>
        <time>2017-09-11T12:09:33Z</time>
      </trkpt>
      <trkpt lat="43.96734" lon="5.20127">
        <ele>565.87</ele>
        <time>2017-09-11T12:09:45Z</time>
      </trkpt>
      <trkpt lat="43.9673" lon="5.20116">
        <ele>565.39</ele>
        <time>2017-09-11T12:10:02Z</time>
      </trkpt>
      <trkpt lat="43.9673" lon="5.20111">
        <ele>565.39</ele>
        <time>2017-09-11T12:10:16Z</time>
      </trkpt>
      <trkpt lat="43.96731" lon="5.20108">
        <ele>564.91</ele>
        <time>2017-09-11T12:10:35Z</time>
      </trkpt>
      <trkpt lat="43.96732" lon="5.20109">
        <ele>565.39</ele>
        <time>2017-09-11T12:10:48Z</time>
      </trkpt>
      <trkpt lat="43.96731" lon="5.2011">
        <ele>565.39</ele>
        <time>2017-09-11T12:11:06Z</time>
      </trkpt>
      <trkpt lat="43.96735" lon="5.20103">
        <ele>565.39</ele>
        <time>2017-09-11T12:11:24Z</time>
      </trkpt>
      <trkpt lat="43.96735" lon="5.20103">
        <ele>563.95</ele>
        <time>2017-09-11T12:11:28Z</time>
      </trkpt>
      <trkpt lat="43.96734" lon="5.20105">
        <ele>565.39</ele>
        <time>2017-09-11T12:11:35Z</time>
      </trkpt>
      <trkpt lat="43.96733" lon="5.2011">
        <ele>565.39</ele>
        <time>2017-09-11T12:11:48Z</time>
      </trkpt>
      <trkpt lat="43.96733" lon="5.2011">
        <ele>563.95</ele>
        <time>2017-09-11T12:11:54Z</time>
      </trkpt>
      <trkpt lat="43.96736" lon="5.20104">
        <ele>564.91</ele>
        <time>2017-09-11T12:12:23Z</time>
      </trkpt>
      <trkpt lat="43.96751" lon="5.20094">
        <ele>563.95</ele>
        <time>2017-09-11T12:12:43Z</time>
      </trkpt>
      <trkpt lat="43.96761" lon="5.20075">
        <ele>562.03</ele>
        <time>2017-09-11T12:13:02Z</time>
      </trkpt>
      <trkpt lat="43.96762" lon="5.2007">
        <ele>562.03</ele>
        <time>2017-09-11T12:13:06Z</time>
      </trkpt>
      <trkpt lat="43.96761" lon="5.20056">
        <ele>560.11</ele>
        <time>2017-09-11T12:13:16Z</time>
      </trkpt>
      <trkpt lat="43.9676" lon="5.20053">
        <ele>560.11</ele>
        <time>2017-09-11T12:13:19Z</time>
      </trkpt>
      <trkpt lat="43.96751" lon="5.20038">
        <ele>560.11</ele>
        <time>2017-09-11T12:13:33Z</time>
      </trkpt>
      <trkpt lat="43.96741" lon="5.20012">
        <ele>558.18</ele>
        <time>2017-09-11T12:13:54Z</time>
      </trkpt>
      <trkpt lat="43.96741" lon="5.20002">
        <ele>557.7</ele>
        <time>2017-09-11T12:14:01Z</time>
      </trkpt>
      <trkpt lat="43.96743" lon="5.19979">
        <ele>557.22</ele>
        <time>2017-09-11T12:14:18Z</time>
      </trkpt>
      <trkpt lat="43.96746" lon="5.19963">
        <ele>556.26</ele>
        <time>2017-09-11T12:14:29Z</time>
      </trkpt>
      <trkpt lat="43.96746" lon="5.19939">
        <ele>555.3</ele>
        <time>2017-09-11T12:14:46Z</time>
      </trkpt>
      <trkpt lat="43.96745" lon="5.19923">
        <ele>553.86</ele>
        <time>2017-09-11T12:14:59Z</time>
      </trkpt>
      <trkpt lat="43.96745" lon="5.19917">
        <ele>554.82</ele>
        <time>2017-09-11T12:15:05Z</time>
      </trkpt>
      <trkpt lat="43.96745" lon="5.19914">
        <ele>554.82</ele>
        <time>2017-09-11T12:15:07Z</time>
      </trkpt>
      <trkpt lat="43.9675" lon="5.19895">
        <ele>554.82</ele>
        <time>2017-09-11T12:15:21Z</time>
      </trkpt>
      <trkpt lat="43.96755" lon="5.19876">
        <ele>553.38</ele>
        <time>2017-09-11T12:15:36Z</time>
      </trkpt>
      <trkpt lat="43.96754" lon="5.19867">
        <ele>552.9</ele>
        <time>2017-09-11T12:15:43Z</time>
      </trkpt>
      <trkpt lat="43.96754" lon="5.19864">
        <ele>552.9</ele>
        <time>2017-09-11T12:15:46Z</time>
      </trkpt>
      <trkpt lat="43.96749" lon="5.19848">
        <ele>552.41</ele>
        <time>2017-09-11T12:15:59Z</time>
      </trkpt>
      <trkpt lat="43.96738" lon="5.19833">
        <ele>551.45</ele>
        <time>2017-09-11T12:16:15Z</time>
      </trkpt>
      <trkpt lat="43.96725" lon="5.1982">
        <ele>549.53</ele>
        <time>2017-09-11T12:16:32Z</time>
      </trkpt>
      <trkpt lat="43.96711" lon="5.19808">
        <ele>548.57</ele>
        <time>2017-09-11T12:16:49Z</time>
      </trkpt>
      <trkpt lat="43.967" lon="5.19795">
        <ele>548.57</ele>
        <time>2017-09-11T12:17:05Z</time>
      </trkpt>
      <trkpt lat="43.96693" lon="5.19779">
        <ele>546.65</ele>
        <time>2017-09-11T12:17:20Z</time>
      </trkpt>
      <trkpt lat="43.96687" lon="5.1977">
        <ele>545.69</ele>
        <time>2017-09-11T12:17:31Z</time>
      </trkpt>
      <trkpt lat="43.96684" lon="5.19765">
        <ele>545.2</ele>
        <time>2017-09-11T12:17:36Z</time>
      </trkpt>
      <trkpt lat="43.96674" lon="5.19753">
        <ele>544.24</ele>
        <time>2017-09-11T12:17:51Z</time>
      </trkpt>
      <trkpt lat="43.96665" lon="5.19736">
        <ele>542.32</ele>
        <time>2017-09-11T12:18:09Z</time>
      </trkpt>
      <trkpt lat="43.96662" lon="5.1972">
        <ele>541.36</ele>
        <time>2017-09-11T12:18:23Z</time>
      </trkpt>
      <trkpt lat="43.96659" lon="5.197">
        <ele>539.92</ele>
        <time>2017-09-11T12:18:39Z</time>
      </trkpt>
      <trkpt lat="43.96653" lon="5.19681">
        <ele>539.44</ele>
        <time>2017-09-11T12:18:55Z</time>
      </trkpt>
      <trkpt lat="43.96648" lon="5.19667">
        <ele>538.96</ele>
        <time>2017-09-11T12:19:06Z</time>
      </trkpt>
      <trkpt lat="43.96648" lon="5.19665">
        <ele>538.48</ele>
        <time>2017-09-11T12:19:08Z</time>
      </trkpt>
      <trkpt lat="43.96644" lon="5.19639">
        <ele>536.55</ele>
        <time>2017-09-11T12:19:25Z</time>
      </trkpt>
      <trkpt lat="43.96639" lon="5.19629">
        <ele>537.03</ele>
        <time>2017-09-11T12:19:41Z</time>
      </trkpt>
      <trkpt lat="43.96632" lon="5.19614">
        <ele>535.59</ele>
        <time>2017-09-11T12:19:56Z</time>
      </trkpt>
      <trkpt lat="43.96629" lon="5.19602">
        <ele>536.07</ele>
        <time>2017-09-11T12:20:05Z</time>
      </trkpt>
      <trkpt lat="43.96629" lon="5.19596">
        <ele>536.07</ele>
        <time>2017-09-11T12:20:10Z</time>
      </trkpt>
      <trkpt lat="43.96629" lon="5.19587">
        <ele>536.07</ele>
        <time>2017-09-11T12:20:16Z</time>
      </trkpt>
      <trkpt lat="43.96629" lon="5.19581">
        <ele>534.63</ele>
        <time>2017-09-11T12:20:20Z</time>
      </trkpt>
      <trkpt lat="43.96629" lon="5.19579">
        <ele>534.63</ele>
        <time>2017-09-11T12:20:21Z</time>
      </trkpt>
      <trkpt lat="43.96617" lon="5.19564">
        <ele>533.67</ele>
        <time>2017-09-11T12:20:36Z</time>
      </trkpt>
      <trkpt lat="43.96601" lon="5.1955">
        <ele>532.23</ele>
        <time>2017-09-11T12:20:55Z</time>
      </trkpt>
      <trkpt lat="43.96593" lon="5.1954">
        <ele>530.3</ele>
        <time>2017-09-11T12:21:09Z</time>
      </trkpt>
      <trkpt lat="43.96582" lon="5.19525">
        <ele>529.34</ele>
        <time>2017-09-11T12:21:26Z</time>
      </trkpt>
      <trkpt lat="43.96572" lon="5.19509">
        <ele>528.86</ele>
        <time>2017-09-11T12:21:42Z</time>
      </trkpt>
      <trkpt lat="43.96571" lon="5.19505">
        <ele>528.86</ele>
        <time>2017-09-11T12:21:45Z</time>
      </trkpt>
      <trkpt lat="43.9657" lon="5.19499">
        <ele>528.38</ele>
        <time>2017-09-11T12:21:50Z</time>
      </trkpt>
      <trkpt lat="43.9657" lon="5.19476">
        <ele>526.94</ele>
        <time>2017-09-11T12:22:07Z</time>
      </trkpt>
      <trkpt lat="43.96569" lon="5.19455">
        <ele>526.46</ele>
        <time>2017-09-11T12:22:22Z</time>
      </trkpt>
      <trkpt lat="43.96565" lon="5.19435">
        <ele>525.5</ele>
        <time>2017-09-11T12:22:39Z</time>
      </trkpt>
      <trkpt lat="43.96562" lon="5.19415">
        <ele>525.02</ele>
        <time>2017-09-11T12:22:55Z</time>
      </trkpt>
      <trkpt lat="43.96561" lon="5.19414">
        <ele>525.02</ele>
        <time>2017-09-11T12:22:56Z</time>
      </trkpt>
      <trkpt lat="43.96557" lon="5.194">
        <ele>524.06</ele>
        <time>2017-09-11T12:23:06Z</time>
      </trkpt>
      <trkpt lat="43.96543" lon="5.19379">
        <ele>523.09</ele>
        <time>2017-09-11T12:23:25Z</time>
      </trkpt>
      <trkpt lat="43.96535" lon="5.19361">
        <ele>523.58</ele>
        <time>2017-09-11T12:23:38Z</time>
      </trkpt>
      <trkpt lat="43.96537" lon="5.19343">
        <ele>522.61</ele>
        <time>2017-09-11T12:23:52Z</time>
      </trkpt>
      <trkpt lat="43.96539" lon="5.19331">
        <ele>521.17</ele>
        <time>2017-09-11T12:24:01Z</time>
      </trkpt>
      <trkpt lat="43.96543" lon="5.19315">
        <ele>520.69</ele>
        <time>2017-09-11T12:24:15Z</time>
      </trkpt>
      <trkpt lat="43.96551" lon="5.19288">
        <ele>519.25</ele>
        <time>2017-09-11T12:24:34Z</time>
      </trkpt>
      <trkpt lat="43.96558" lon="5.19264">
        <ele>518.77</ele>
        <time>2017-09-11T12:24:52Z</time>
      </trkpt>
      <trkpt lat="43.96559" lon="5.19261">
        <ele>518.77</ele>
        <time>2017-09-11T12:24:56Z</time>
      </trkpt>
      <trkpt lat="43.9656" lon="5.19254">
        <ele>518.29</ele>
        <time>2017-09-11T12:24:59Z</time>
      </trkpt>
      <trkpt lat="43.9656" lon="5.19246">
        <ele>518.29</ele>
        <time>2017-09-11T12:25:05Z</time>
      </trkpt>
      <trkpt lat="43.9656" lon="5.19243">
        <ele>518.29</ele>
        <time>2017-09-11T12:25:07Z</time>
      </trkpt>
      <trkpt lat="43.9656" lon="5.19241">
        <ele>518.29</ele>
        <time>2017-09-11T12:25:08Z</time>
      </trkpt>
      <trkpt lat="43.96559" lon="5.19221">
        <ele>517.33</ele>
        <time>2017-09-11T12:25:22Z</time>
      </trkpt>
      <trkpt lat="43.96559" lon="5.1922">
        <ele>517.33</ele>
        <time>2017-09-11T12:25:23Z</time>
      </trkpt>
      <trkpt lat="43.96559" lon="5.19219">
        <ele>517.33</ele>
        <time>2017-09-11T12:25:24Z</time>
      </trkpt>
      <trkpt lat="43.96558" lon="5.19216">
        <ele>517.33</ele>
        <time>2017-09-11T12:25:25Z</time>
      </trkpt>
      <trkpt lat="43.96558" lon="5.19214">
        <ele>516.85</ele>
        <time>2017-09-11T12:25:26Z</time>
      </trkpt>
      <trkpt lat="43.96556" lon="5.19202">
        <ele>516.37</ele>
        <time>2017-09-11T12:25:36Z</time>
      </trkpt>
      <trkpt lat="43.96555" lon="5.19199">
        <ele>515.88</ele>
        <time>2017-09-11T12:25:38Z</time>
      </trkpt>
      <trkpt lat="43.96553" lon="5.19187">
        <ele>515.88</ele>
        <time>2017-09-11T12:25:48Z</time>
      </trkpt>
      <trkpt lat="43.96552" lon="5.19185">
        <ele>515.88</ele>
        <time>2017-09-11T12:25:49Z</time>
      </trkpt>
      <trkpt lat="43.96551" lon="5.19178">
        <ele>515.88</ele>
        <time>2017-09-11T12:25:55Z</time>
      </trkpt>
      <trkpt lat="43.9655" lon="5.19176">
        <ele>515.88</ele>
        <time>2017-09-11T12:25:56Z</time>
      </trkpt>
      <trkpt lat="43.9655" lon="5.19174">
        <ele>515.88</ele>
        <time>2017-09-11T12:25:57Z</time>
      </trkpt>
      <trkpt lat="43.96549" lon="5.19173">
        <ele>515.88</ele>
        <time>2017-09-11T12:25:58Z</time>
      </trkpt>
      <trkpt lat="43.96549" lon="5.19169">
        <ele>515.88</ele>
        <time>2017-09-11T12:26:00Z</time>
      </trkpt>
      <trkpt lat="43.96548" lon="5.19152">
        <ele>515.4</ele>
        <time>2017-09-11T12:26:15Z</time>
      </trkpt>
      <trkpt lat="43.96549" lon="5.19149">
        <ele>515.4</ele>
        <time>2017-09-11T12:26:32Z</time>
      </trkpt>
      <trkpt lat="43.96549" lon="5.1915">
        <ele>516.85</ele>
        <time>2017-09-11T12:26:39Z</time>
      </trkpt>
      <trkpt lat="43.9655" lon="5.19138">
        <ele>516.85</ele>
        <time>2017-09-11T12:26:55Z</time>
      </trkpt>
      <trkpt lat="43.96551" lon="5.19131">
        <ele>515.4</ele>
        <time>2017-09-11T12:27:02Z</time>
      </trkpt>
      <trkpt lat="43.9655" lon="5.19128">
        <ele>515.4</ele>
        <time>2017-09-11T12:27:06Z</time>
      </trkpt>
      <trkpt lat="43.9655" lon="5.19125">
        <ele>515.4</ele>
        <time>2017-09-11T12:27:08Z</time>
      </trkpt>
      <trkpt lat="43.9655" lon="5.19125">
        <ele>515.4</ele>
        <time>2017-09-11T12:27:17Z</time>
      </trkpt>
      <trkpt lat="43.9655" lon="5.19125">
        <ele>513.96</ele>
        <time>2017-09-11T12:27:36Z</time>
      </trkpt>
      <trkpt lat="43.9655" lon="5.19127">
        <ele>515.4</ele>
        <time>2017-09-11T12:27:56Z</time>
      </trkpt>
      <trkpt lat="43.96555" lon="5.19117">
        <ele>515.88</ele>
        <time>2017-09-11T12:28:19Z</time>
      </trkpt>
      <trkpt lat="43.96559" lon="5.19113">
        <ele>514.44</ele>
        <time>2017-09-11T12:28:25Z</time>
      </trkpt>
      <trkpt lat="43.96572" lon="5.19108">
        <ele>514.44</ele>
        <time>2017-09-11T12:28:41Z</time>
      </trkpt>
      <trkpt lat="43.96585" lon="5.19101">
        <ele>514.44</ele>
        <time>2017-09-11T12:28:55Z</time>
      </trkpt>
      <trkpt lat="43.96597" lon="5.19093">
        <ele>513.96</ele>
        <time>2017-09-11T12:29:09Z</time>
      </trkpt>
      <trkpt lat="43.966" lon="5.19091">
        <ele>515.4</ele>
        <time>2017-09-11T12:29:13Z</time>
      </trkpt>
      <trkpt lat="43.96618" lon="5.19082">
        <ele>514.44</ele>
        <time>2017-09-11T12:29:31Z</time>
      </trkpt>
      <trkpt lat="43.96634" lon="5.1907">
        <ele>513.96</ele>
        <time>2017-09-11T12:29:48Z</time>
      </trkpt>
      <trkpt lat="43.96638" lon="5.19065">
        <ele>513.48</ele>
        <time>2017-09-11T12:29:53Z</time>
      </trkpt>
      <trkpt lat="43.96641" lon="5.19061">
        <ele>514.92</ele>
        <time>2017-09-11T12:29:57Z</time>
      </trkpt>
      <trkpt lat="43.96645" lon="5.19057">
        <ele>512.04</ele>
        <time>2017-09-11T12:30:02Z</time>
      </trkpt>
      <trkpt lat="43.96651" lon="5.19046">
        <ele>513</ele>
        <time>2017-09-11T12:30:17Z</time>
      </trkpt>
      <trkpt lat="43.96656" lon="5.19037">
        <ele>511.56</ele>
        <time>2017-09-11T12:30:24Z</time>
      </trkpt>
      <trkpt lat="43.96663" lon="5.19024">
        <ele>512.04</ele>
        <time>2017-09-11T12:30:36Z</time>
      </trkpt>
      <trkpt lat="43.96666" lon="5.19016">
        <ele>511.08</ele>
        <time>2017-09-11T12:30:43Z</time>
      </trkpt>
      <trkpt lat="43.96671" lon="5.19007">
        <ele>509.16</ele>
        <time>2017-09-11T12:30:51Z</time>
      </trkpt>
      <trkpt lat="43.96674" lon="5.19003">
        <ele>508.67</ele>
        <time>2017-09-11T12:30:55Z</time>
      </trkpt>
      <trkpt lat="43.96684" lon="5.18996">
        <ele>508.67</ele>
        <time>2017-09-11T12:31:10Z</time>
      </trkpt>
      <trkpt lat="43.96694" lon="5.18986">
        <ele>508.19</ele>
        <time>2017-09-11T12:31:25Z</time>
      </trkpt>
      <trkpt lat="43.96696" lon="5.18982">
        <ele>507.23</ele>
        <time>2017-09-11T12:31:28Z</time>
      </trkpt>
      <trkpt lat="43.96704" lon="5.18971">
        <ele>506.75</ele>
        <time>2017-09-11T12:31:39Z</time>
      </trkpt>
      <trkpt lat="43.96711" lon="5.18958">
        <ele>505.79</ele>
        <time>2017-09-11T12:31:51Z</time>
      </trkpt>
      <trkpt lat="43.96712" lon="5.18956">
        <ele>505.79</ele>
        <time>2017-09-11T12:31:53Z</time>
      </trkpt>
      <trkpt lat="43.96712" lon="5.18954">
        <ele>505.79</ele>
        <time>2017-09-11T12:31:54Z</time>
      </trkpt>
      <trkpt lat="43.96713" lon="5.18952">
        <ele>505.31</ele>
        <time>2017-09-11T12:31:55Z</time>
      </trkpt>
      <trkpt lat="43.96714" lon="5.1895">
        <ele>505.31</ele>
        <time>2017-09-11T12:31:56Z</time>
      </trkpt>
      <trkpt lat="43.96715" lon="5.18947">
        <ele>504.83</ele>
        <time>2017-09-11T12:32:00Z</time>
      </trkpt>
      <trkpt lat="43.96715" lon="5.18946">
        <ele>504.83</ele>
        <time>2017-09-11T12:32:01Z</time>
      </trkpt>
      <trkpt lat="43.96719" lon="5.18942">
        <ele>504.83</ele>
        <time>2017-09-11T12:32:12Z</time>
      </trkpt>
      <trkpt lat="43.96722" lon="5.1893">
        <ele>504.83</ele>
        <time>2017-09-11T12:32:25Z</time>
      </trkpt>
      <trkpt lat="43.96723" lon="5.18919">
        <ele>505.79</ele>
        <time>2017-09-11T12:32:38Z</time>
      </trkpt>
      <trkpt lat="43.96725" lon="5.18909">
        <ele>504.35</ele>
        <time>2017-09-11T12:32:45Z</time>
      </trkpt>
      <trkpt lat="43.96724" lon="5.18902">
        <ele>505.79</ele>
        <time>2017-09-11T12:32:57Z</time>
      </trkpt>
      <trkpt lat="43.96722" lon="5.18902">
        <ele>504.35</ele>
        <time>2017-09-11T12:33:12Z</time>
      </trkpt>
    </trkseg>
  </trk>
</gpx>